Time,TemperatureF,DewpointF,PressureIn,WindDirection,WindDirectionDegrees,WindSpeedMPH,WindSpeedGustMPH,Humidity,HourlyPrecipIn,Conditions,Clouds,dailyrainin,SoftwareType,DateUTC
2013-01-12 00:00:00,48.2,47.9,29.84,SW,216,6.8,6.8,99,0.00,,,0.00,VWS V14.01,2013-01-12 05:00:00,
2013-01-12 00:01:00,48.3,48.0,29.84,SW,221,8.0,8.0,99,0.00,,,0.00,VWS V14.01,2013-01-12 05:01:00,
2013-01-12 00:02:00,48.0,47.6,29.84,SW,216,7.1,7.1,99,0.00,,,0.00,VWS V14.01,2013-01-12 05:02:00,
2013-01-12 00:03:00,47.9,47.5,29.87,SW,214,5.1,5.4,98,0.00,,,0.00,VWS V14.01,2013-01-12 05:03:00,
2013-01-12 00:05:00,47.9,47.5,29.84,SW,219,9.0,9.3,99,0.00,,,0.00,VWS V14.01,2013-01-12 05:05:00,
2013-01-12 00:07:00,48.2,47.7,29.84,SSW,207,6.3,7.1,98,0.00,,,0.00,VWS V14.01,2013-01-12 05:07:00,
2013-01-12 00:08:00,47.7,47.1,29.84,SSW,209,7.6,7.6,98,0.00,,,0.00,VWS V14.01,2013-01-12 05:08:00,
2013-01-12 00:09:00,47.8,47.3,29.84,SSW,209,5.7,7.6,98,0.00,,,0.00,VWS V14.01,2013-01-12 05:09:00,
2013-01-12 00:11:00,48.2,47.8,29.82,SSW,200,6.9,6.9,99,0.00,,,0.00,VWS V14.01,2013-01-12 05:11:00,
2013-01-12 00:14:00,47.3,46.8,29.84,South,186,4.0,4.9,98,0.00,,,0.00,VWS V14.01,2013-01-12 05:14:00,
2013-01-12 00:15:00,47.5,47.1,29.83,SW,218,3.9,5.2,98,0.00,,,0.00,VWS V14.01,2013-01-12 05:15:00,
2013-01-12 00:18:00,47.3,47.0,29.83,SSW,202,3.9,4.4,99,0.00,,,0.00,VWS V14.01,2013-01-12 05:18:00,
2013-01-12 00:19:00,47.2,46.9,29.83,SSW,209,3.7,3.7,99,0.00,,,0.00,VWS V14.01,2013-01-12 05:19:00,
2013-01-12 00:20:00,47.4,47.0,29.82,SSW,209,2.8,3.7,98,0.00,,,0.00,VWS V14.01,2013-01-12 05:20:00,
2013-01-12 00:21:00,47.6,47.3,29.83,SSW,203,4.4,5.6,99,0.00,,,0.00,VWS V14.01,2013-01-12 05:21:00,
2013-01-12 00:24:00,47.7,47.4,29.83,SSW,194,5.9,5.9,99,0.00,,,0.00,VWS V14.01,2013-01-12 05:24:00,
2013-01-12 00:25:00,47.7,47.4,29.83,SSW,205,4.7,5.9,99,0.00,,,0.00,VWS V14.01,2013-01-12 05:25:00,
2013-01-12 00:26:00,47.7,47.4,29.83,SSW,205,4.7,5.9,99,0.00,,,0.00,VWS V14.01,2013-01-12 05:26:00,
2013-01-12 00:31:00,47.3,47.0,29.83,SSW,208,3.7,5.2,99,0.00,,,0.00,VWS V14.01,2013-01-12 05:31:00,
2013-01-12 00:33:00,47.2,47.0,29.82,SSW,207,5.6,5.6,99,0.00,,,0.00,VWS V14.01,2013-01-12 05:33:00,
2013-01-12 00:36:00,47.4,47.3,29.83,SSW,211,4.9,5.4,100,0.00,,,0.00,VWS V14.01,2013-01-12 05:36:00,
2013-01-12 00:37:00,47.7,47.6,29.83,SSW,200,5.4,5.4,100,0.00,,,0.00,VWS V14.01,2013-01-12 05:37:00,
2013-01-12 00:39:00,47.2,47.1,29.84,SSW,212,4.5,4.7,100,0.00,,,0.00,VWS V14.01,2013-01-12 05:39:00,
2013-01-12 00:42:00,47.4,47.3,29.82,SW,217,4.5,5.7,100,0.00,,,0.00,VWS V14.01,2013-01-12 05:42:00,
2013-01-12 00:43:00,47.4,47.3,29.82,SW,222,5.2,5.2,100,0.00,,,0.00,VWS V14.01,2013-01-12 05:43:00,
2013-01-12 00:44:00,47.0,47.0,29.83,SW,214,4.9,4.9,100,0.00,,,0.00,VWS V14.01,2013-01-12 05:44:00,
2013-01-12 00:48:00,47.2,47.1,29.83,SSW,211,4.2,4.2,100,0.00,,,0.00,VWS V14.01,2013-01-12 05:48:00,
2013-01-12 00:49:00,48.0,47.4,29.84,SSW,211,6.8,6.8,98,0.00,,,0.00,VWS V14.01,2013-01-12 05:49:00,
2013-01-12 00:51:00,47.4,47.3,29.84,SW,216,6.8,6.8,100,0.00,,,0.00,VWS V14.01,2013-01-12 05:51:00,
2013-01-12 00:53:00,47.6,47.4,29.83,SSW,205,5.4,5.4,99,0.00,,,0.00,VWS V14.01,2013-01-12 05:53:00,
2013-01-12 00:56:00,47.6,47.5,29.83,SSW,201,6.3,6.3,100,0.00,,,0.00,VWS V14.01,2013-01-12 05:56:00,
2013-01-12 00:58:00,48.0,48.0,29.83,SSW,206,8.5,8.5,100,0.00,,,0.00,VWS V14.01,2013-01-12 05:58:00,
2013-01-12 00:59:00,47.7,47.7,29.83,SW,214,5.7,8.5,100,0.00,,,0.00,VWS V14.01,2013-01-12 05:59:00,
2013-01-12 01:01:00,47.8,47.8,29.83,SW,220,6.9,6.9,100,0.00,,,0.00,VWS V14.01,2013-01-12 06:01:00,
2013-01-12 01:02:00,47.7,47.7,29.84,SW,222,5.7,7.3,100,0.00,,,0.00,VWS V14.01,2013-01-12 06:02:00,
2013-01-12 01:04:00,47.4,47.3,29.84,SW,224,4.5,5.2,100,0.00,,,0.00,VWS V14.01,2013-01-12 06:04:00,
2013-01-12 01:06:00,47.1,47.0,29.83,SW,221,3.7,5.6,100,0.00,,,0.00,VWS V14.01,2013-01-12 06:06:00,
2013-01-12 01:07:00,47.4,47.3,29.83,SW,217,5.7,5.7,100,0.00,,,0.00,VWS V14.01,2013-01-12 06:07:00,
2013-01-12 01:09:00,47.1,47.1,29.83,SW,217,4.9,4.9,100,0.00,,,0.00,VWS V14.01,2013-01-12 06:09:00,
2013-01-12 01:10:00,46.8,46.7,29.83,SSW,212,4.4,4.4,100,0.00,,,0.00,VWS V14.01,2013-01-12 06:10:00,
2013-01-12 01:12:00,47.2,47.2,29.82,SSW,205,5.7,5.7,100,0.00,,,0.00,VWS V14.01,2013-01-12 06:12:00,
2013-01-12 01:13:00,46.7,46.6,29.81,SSW,206,3.7,4.5,100,0.00,,,0.00,VWS V14.01,2013-01-12 06:13:00,
2013-01-12 01:14:00,47.1,47.1,29.82,SW,214,5.4,5.6,100,0.00,,,0.00,VWS V14.01,2013-01-12 06:14:00,
2013-01-12 01:16:00,46.6,46.6,29.83,SW,229,3.9,4.2,100,0.00,,,0.00,VWS V14.01,2013-01-12 06:16:00,
2013-01-12 01:18:00,47.0,47.0,29.83,SW,224,7.1,7.1,100,0.00,,,0.00,VWS V14.01,2013-01-12 06:18:00,
2013-01-12 01:19:00,46.9,46.9,29.84,SSW,212,3.7,3.7,100,0.00,,,0.00,VWS V14.01,2013-01-12 06:19:00,
2013-01-12 01:20:00,47.0,47.0,29.84,SW,221,4.2,4.2,100,0.00,,,0.00,VWS V14.01,2013-01-12 06:20:00,
2013-01-12 01:22:00,46.8,46.8,29.84,SW,219,5.2,5.6,100,0.00,,,0.00,VWS V14.01,2013-01-12 06:22:00,
2013-01-12 01:25:00,47.1,47.2,29.82,SSW,208,6.9,6.9,100,0.00,,,0.00,VWS V14.01,2013-01-12 06:25:00,
2013-01-12 01:26:00,46.5,46.5,29.83,SSW,210,4.5,5.1,100,0.00,,,0.00,VWS V14.01,2013-01-12 06:26:00,
2013-01-12 01:27:00,46.6,46.6,29.83,SSW,212,4.7,5.1,100,0.00,,,0.00,VWS V14.01,2013-01-12 06:27:00,
2013-01-12 01:31:00,46.6,46.6,29.83,SSW,210,5.6,7.3,100,0.00,,,0.00,VWS V14.01,2013-01-12 06:31:00,
2013-01-12 01:32:00,46.8,46.8,29.86,SSW,201,4.9,5.6,100,0.00,,,0.00,VWS V14.01,2013-01-12 06:32:00,
2013-01-12 01:33:00,46.8,46.8,29.83,SW,217,6.8,6.8,100,0.00,,,0.00,VWS V14.01,2013-01-12 06:33:00,
2013-01-12 01:34:00,46.6,46.6,29.83,SW,221,5.2,6.8,100,0.00,,,0.00,VWS V14.01,2013-01-12 06:34:00,
2013-01-12 01:36:00,46.5,46.5,29.82,SW,235,4.9,5.4,100,0.00,,,0.00,VWS V14.01,2013-01-12 06:36:00,
2013-01-12 01:39:00,46.7,46.7,29.83,SW,234,5.6,5.6,100,0.00,,,0.00,VWS V14.01,2013-01-12 06:39:00,
2013-01-12 01:40:00,47.2,47.2,29.83,SW,224,6.1,6.9,100,0.00,,,0.00,VWS V14.01,2013-01-12 06:40:00,
2013-01-12 01:42:00,47.1,47.1,29.83,SSW,211,6.3,6.3,100,0.00,,,0.00,VWS V14.01,2013-01-12 06:42:00,
2013-01-12 01:45:00,47.0,47.0,29.84,SW,220,3.5,4.9,100,0.00,,,0.00,VWS V14.01,2013-01-12 06:45:00,
2013-01-12 01:46:00,46.7,46.7,29.83,SW,228,4.0,6.1,100,0.00,,,0.00,VWS V14.01,2013-01-12 06:46:00,
2013-01-12 01:47:00,46.6,46.6,29.83,SW,233,3.7,4.0,100,0.00,,,0.00,VWS V14.01,2013-01-12 06:47:00,
2013-01-12 01:51:00,46.1,46.1,29.82,SW,231,3.4,3.9,100,0.00,,,0.00,VWS V14.01,2013-01-12 06:51:00,
2013-01-12 01:53:00,46.3,46.3,29.84,SW,227,4.7,5.2,100,0.00,,,0.00,VWS V14.01,2013-01-12 06:53:00,
2013-01-12 01:56:00,46.5,46.5,29.84,SSW,205,5.6,5.6,100,0.00,,,0.00,VWS V14.01,2013-01-12 06:56:00,
2013-01-12 01:57:00,46.2,46.2,29.83,SW,235,2.3,5.6,100,0.00,,,0.00,VWS V14.01,2013-01-12 06:57:00,
2013-01-12 01:58:00,46.1,46.1,29.83,SW,228,2.7,5.6,100,0.00,,,0.00,VWS V14.01,2013-01-12 06:58:00,
2013-01-12 02:02:00,46.0,46.0,29.87,SW,219,5.2,5.2,100,0.00,,,0.00,VWS V14.01,2013-01-12 07:02:00,
2013-01-12 02:03:00,46.2,46.2,29.85,SW,224,3.7,5.2,100,0.00,,,0.00,VWS V14.01,2013-01-12 07:03:00,
2013-01-12 02:08:00,46.2,46.2,29.84,SW,227,4.2,4.4,100,0.00,,,0.00,VWS V14.01,2013-01-12 07:08:00,
2013-01-12 02:09:00,46.2,46.2,29.84,SW,230,4.0,4.7,100,0.00,,,0.00,VWS V14.01,2013-01-12 07:09:00,
2013-01-12 02:14:00,46.2,46.2,29.84,SW,233,3.5,4.4,100,0.00,,,0.00,VWS V14.01,2013-01-12 07:14:00,
2013-01-12 02:17:00,45.9,45.9,29.85,WSW,238,2.5,2.5,100,0.00,,,0.00,VWS V14.01,2013-01-12 07:17:00,
2013-01-12 02:19:00,46.0,46.0,29.84,WSW,239,3.5,3.5,100,0.00,,,0.00,VWS V14.01,2013-01-12 07:19:00,
2013-01-12 02:21:00,47.0,47.0,29.84,WSW,248,3.4,3.4,100,0.00,,,0.00,VWS V14.01,2013-01-12 07:21:00,
2013-01-12 02:24:00,46.6,46.6,29.84,WSW,245,4.4,4.4,100,0.00,,,0.00,VWS V14.01,2013-01-12 07:24:00,
2013-01-12 02:25:00,46.2,46.2,29.85,WSW,239,2.7,3.2,100,0.00,,,0.00,VWS V14.01,2013-01-12 07:25:00,
2013-01-12 02:26:00,46.0,45.1,29.85,WSW,243,2.7,3.2,97,0.00,,,0.00,VWS V14.01,2013-01-12 07:26:00,
2013-01-12 02:27:00,46.2,46.2,29.85,WSW,247,2.7,3.2,100,0.00,,,0.00,VWS V14.01,2013-01-12 07:27:00,
2013-01-12 02:29:00,46.2,46.2,29.85,WSW,245,1.5,2.3,100,0.00,,,0.00,VWS V14.01,2013-01-12 07:29:00,
2013-01-12 02:31:00,46.7,46.7,29.85,WSW,246,1.8,2.3,100,0.00,,,0.00,VWS V14.01,2013-01-12 07:31:00,
2013-01-12 02:32:00,46.5,46.5,29.84,WSW,242,2.2,2.2,100,0.00,,,0.00,VWS V14.01,2013-01-12 07:32:00,
2013-01-12 02:33:00,46.4,46.4,29.84,WSW,238,1.0,2.2,100,0.00,,,0.00,VWS V14.01,2013-01-12 07:33:00,
2013-01-12 02:34:00,46.2,46.2,29.85,SW,234,1.6,1.6,100,0.00,,,0.00,VWS V14.01,2013-01-12 07:34:00,
2013-01-12 02:36:00,46.3,46.3,29.85,WSW,240,1.5,3.2,100,0.00,,,0.00,VWS V14.01,2013-01-12 07:36:00,
2013-01-12 02:38:00,47.0,47.0,29.84,WSW,242,3.4,3.5,100,0.00,,,0.00,VWS V14.01,2013-01-12 07:38:00,
2013-01-12 02:40:00,46.7,46.7,29.85,WSW,250,2.5,2.5,100,0.00,,,0.00,VWS V14.01,2013-01-12 07:40:00,
2013-01-12 02:41:00,46.9,46.9,29.85,WSW,255,2.3,2.5,100,0.00,,,0.00,VWS V14.01,2013-01-12 07:41:00,
2013-01-12 02:45:00,46.6,46.6,29.85,WSW,240,2.0,2.3,100,0.00,,,0.00,VWS V14.01,2013-01-12 07:45:00,
2013-01-12 02:46:00,46.6,46.6,29.85,SW,236,3.0,3.0,100,0.00,,,0.00,VWS V14.01,2013-01-12 07:46:00,
2013-01-12 02:47:00,46.3,46.3,29.85,SW,236,2.7,3.0,100,0.00,,,0.00,VWS V14.01,2013-01-12 07:47:00,
2013-01-12 02:50:00,46.6,46.6,29.85,SW,231,3.5,3.5,100,0.00,,,0.00,VWS V14.01,2013-01-12 07:50:00,
2013-01-12 02:52:00,46.1,46.1,29.87,SW,234,1.8,2.0,100,0.00,,,0.00,VWS V14.01,2013-01-12 07:52:00,
2013-01-12 02:53:00,46.4,46.4,29.86,WSW,241,3.2,3.2,100,0.00,,,0.00,VWS V14.01,2013-01-12 07:53:00,
2013-01-12 02:55:00,46.1,46.1,29.86,WSW,249,1.0,2.7,100,0.00,,,0.00,VWS V14.01,2013-01-12 07:55:00,
2013-01-12 02:58:00,46.5,46.5,29.85,WSW,255,2.2,2.2,100,0.00,,,0.00,VWS V14.01,2013-01-12 07:58:00,
2013-01-12 02:59:00,46.7,46.7,29.86,West,261,2.2,2.2,100,0.00,,,0.00,VWS V14.01,2013-01-12 07:59:00,
2013-01-12 03:02:00,46.8,46.8,29.86,West,265,3.2,3.4,100,0.00,,,0.00,VWS V14.01,2013-01-12 08:02:00,
2013-01-12 03:04:00,47.1,47.1,29.87,West,260,3.5,4.2,100,0.00,,,0.00,VWS V14.01,2013-01-12 08:04:00,
2013-01-12 03:05:00,47.3,47.3,29.86,WSW,253,2.7,4.2,100,0.00,,,0.00,VWS V14.01,2013-01-12 08:05:00,
2013-01-12 03:09:00,47.2,47.2,29.87,WSW,248,2.2,4.2,100,0.00,,,0.00,VWS V14.01,2013-01-12 08:09:00,
2013-01-12 03:10:00,47.3,47.3,29.87,WSW,245,2.5,4.2,100,0.00,,,0.00,VWS V14.01,2013-01-12 08:10:00,
2013-01-12 03:14:00,47.3,47.3,29.85,WSW,241,2.7,4.2,100,0.00,,,0.00,VWS V14.01,2013-01-12 08:14:00,
2013-01-12 03:15:00,46.6,46.6,29.86,WSW,240,1.8,4.2,100,0.00,,,0.00,VWS V14.01,2013-01-12 08:15:00,
2013-01-12 03:16:00,46.7,46.7,29.85,SW,233,2.0,4.2,100,0.00,,,0.00,VWS V14.01,2013-01-12 08:16:00,
2013-01-12 03:19:00,47.1,47.1,29.86,SW,233,1.3,4.2,100,0.00,,,0.00,VWS V14.01,2013-01-12 08:19:00,
2013-01-12 03:21:00,46.8,46.8,29.86,SW,230,2.5,4.2,100,0.00,,,0.00,VWS V14.01,2013-01-12 08:21:00,
2013-01-12 03:22:00,46.9,46.9,29.86,SW,233,1.6,4.2,100,0.00,,,0.00,VWS V14.01,2013-01-12 08:22:00,
2013-01-12 03:25:00,47.1,47.1,29.86,SW,227,2.2,4.2,100,0.00,,,0.00,VWS V14.01,2013-01-12 08:25:00,
2013-01-12 03:26:00,47.1,47.1,29.86,SW,228,3.5,4.2,100,0.00,,,0.00,VWS V14.01,2013-01-12 08:26:00,
2013-01-12 03:28:00,46.8,46.8,29.85,WSW,237,0.0,4.2,100,0.00,,,0.00,VWS V14.01,2013-01-12 08:28:00,
2013-01-12 03:31:00,47.1,47.1,29.86,WSW,237,2.7,4.2,100,0.00,,,0.00,VWS V14.01,2013-01-12 08:31:00,
2013-01-12 03:33:00,47.5,47.5,29.87,WSW,239,4.5,4.5,100,0.00,,,0.00,VWS V14.01,2013-01-12 08:33:00,
2013-01-12 03:34:00,47.5,47.5,29.87,SW,224,3.7,4.5,100,0.00,,,0.00,VWS V14.01,2013-01-12 08:34:00,
2013-01-12 03:36:00,47.7,47.7,29.86,SW,231,1.8,4.5,100,0.00,,,0.00,VWS V14.01,2013-01-12 08:36:00,
2013-01-12 03:38:00,48.4,48.4,29.86,WSW,243,3.9,4.5,100,0.00,,,0.00,VWS V14.01,2013-01-12 08:38:00,
2013-01-12 03:39:00,48.0,48.0,29.86,SW,235,3.5,4.5,100,0.00,,,0.00,VWS V14.01,2013-01-12 08:39:00,
2013-01-12 03:40:00,47.9,47.9,29.85,SW,225,3.5,4.5,100,0.00,,,0.00,VWS V14.01,2013-01-12 08:40:00,
2013-01-12 03:41:00,47.9,47.9,29.85,SW,236,2.3,4.5,100,0.00,,,0.00,VWS V14.01,2013-01-12 08:41:00,
2013-01-12 03:43:00,48.0,47.9,29.86,SW,230,3.4,4.5,100,0.00,,,0.00,VWS V14.01,2013-01-12 08:43:00,
2013-01-12 03:45:00,48.5,48.3,29.86,SW,216,4.7,4.7,99,0.00,,,0.00,VWS V14.01,2013-01-12 08:45:00,
2013-01-12 03:46:00,48.3,48.0,29.86,WSW,237,3.9,4.7,99,0.00,,,0.00,VWS V14.01,2013-01-12 08:46:00,
2013-01-12 03:47:00,48.4,48.0,29.84,SW,236,4.5,4.7,99,0.00,,,0.00,VWS V14.01,2013-01-12 08:47:00,
2013-01-12 03:49:00,48.8,48.4,29.85,WSW,253,4.2,4.7,98,0.00,,,0.00,VWS V14.01,2013-01-12 08:49:00,
2013-01-12 03:52:00,48.3,47.6,29.85,WSW,239,3.9,5.1,97,0.00,,,0.00,VWS V14.01,2013-01-12 08:52:00,
2013-01-12 03:53:00,48.5,47.8,29.85,WSW,239,3.5,5.1,97,0.00,,,0.00,VWS V14.01,2013-01-12 08:53:00,
2013-01-12 03:54:00,48.3,47.3,29.86,SW,232,2.8,5.1,96,0.00,,,0.00,VWS V14.01,2013-01-12 08:54:00,
2013-01-12 03:57:00,48.5,47.4,29.85,SW,235,4.0,5.1,96,0.00,,,0.00,VWS V14.01,2013-01-12 08:57:00,
2013-01-12 03:59:00,48.2,47.0,29.86,SW,228,3.2,5.1,96,0.00,,,0.00,VWS V14.01,2013-01-12 08:59:00,
2013-01-12 04:00:00,48.0,46.8,29.85,SW,222,2.0,5.1,96,0.00,,,0.00,VWS V14.01,2013-01-12 09:00:00,
2013-01-12 04:02:00,48.1,47.0,29.84,SW,219,2.2,5.7,96,0.00,,,0.00,VWS V14.01,2013-01-12 09:02:00,
2013-01-12 04:04:00,48.4,47.2,29.85,SW,228,3.2,3.2,96,0.00,,,0.00,VWS V14.01,2013-01-12 09:04:00,
2013-01-12 04:05:00,48.6,47.4,29.85,SW,227,2.2,3.2,95,0.00,,,0.00,VWS V14.01,2013-01-12 09:05:00,
2013-01-12 04:09:00,48.5,47.3,29.85,SW,234,3.7,3.7,96,0.00,,,0.00,VWS V14.01,2013-01-12 09:09:00,
2013-01-12 04:10:00,48.4,47.2,29.85,SW,233,3.4,3.7,96,0.00,,,0.00,VWS V14.01,2013-01-12 09:10:00,
2013-01-12 04:14:00,48.1,46.8,29.84,SW,226,3.2,3.2,95,0.00,,,0.00,VWS V14.01,2013-01-12 09:14:00,
2013-01-12 04:15:00,48.3,47.1,29.85,SW,229,3.4,3.4,96,0.00,,,0.00,VWS V14.01,2013-01-12 09:15:00,
2013-01-12 04:16:00,48.1,46.9,29.85,SW,230,1.6,3.4,95,0.00,,,0.00,VWS V14.01,2013-01-12 09:16:00,
2013-01-12 04:20:00,48.2,46.9,29.86,SW,234,1.5,2.7,95,0.00,,,0.00,VWS V14.01,2013-01-12 09:20:00,
2013-01-12 04:21:00,48.1,46.8,29.86,SW,234,0.0,2.5,95,0.00,,,0.00,VWS V14.01,2013-01-12 09:21:00,
2013-01-12 04:22:00,48.2,46.9,29.85,SW,226,1.6,1.6,95,0.00,,,0.00,VWS V14.01,2013-01-12 09:22:00,
2013-01-12 04:25:00,47.8,46.5,29.85,SW,214,2.8,3.7,95,0.00,,,0.00,VWS V14.01,2013-01-12 09:25:00,
2013-01-12 04:27:00,48.4,47.0,29.85,SSW,211,0.0,0.0,95,0.00,,,0.00,VWS V14.01,2013-01-12 09:27:00,
2013-01-12 04:28:00,47.7,46.0,29.85,SSW,213,1.0,1.0,94,0.00,,,0.00,VWS V14.01,2013-01-12 09:28:00,
2013-01-12 04:30:00,48.2,46.7,29.83,SSW,204,2.5,2.5,95,0.00,,,0.00,VWS V14.01,2013-01-12 09:30:00,
2013-01-12 04:31:00,48.3,46.8,29.84,SSW,198,2.8,2.8,95,0.00,,,0.00,VWS V14.01,2013-01-12 09:31:00,
2013-01-12 04:32:00,47.9,46.3,29.85,SSW,199,2.8,2.8,94,0.00,,,0.00,VWS V14.01,2013-01-12 09:32:00,
2013-01-12 04:34:00,48.2,46.6,29.83,SSW,204,4.0,4.0,94,0.00,,,0.00,VWS V14.01,2013-01-12 09:34:00,
2013-01-12 04:35:00,47.9,46.3,29.84,SSW,204,3.2,3.4,94,0.00,,,0.00,VWS V14.01,2013-01-12 09:35:00,
2013-01-12 04:38:00,47.7,46.2,29.84,SSW,213,3.5,3.7,95,0.00,,,0.00,VWS V14.01,2013-01-12 09:38:00,
2013-01-12 04:39:00,48.0,46.4,29.85,SSW,210,2.8,3.5,94,0.00,,,0.00,VWS V14.01,2013-01-12 09:39:00,
2013-01-12 04:40:00,48.0,46.5,29.85,SSW,209,3.4,3.4,94,0.00,,,0.00,VWS V14.01,2013-01-12 09:40:00,
2013-01-12 04:42:00,47.0,45.4,29.85,SSW,207,0.0,1.3,94,0.00,,,0.00,VWS V14.01,2013-01-12 09:42:00,
2013-01-12 04:44:00,47.6,46.4,29.84,SSW,211,0.0,0.0,95,0.00,,,0.00,VWS V14.01,2013-01-12 09:44:00,
2013-01-12 04:45:00,47.5,46.2,29.84,SSW,211,0.0,0.0,95,0.00,,,0.00,VWS V14.01,2013-01-12 09:45:00,
2013-01-12 04:46:00,47.6,46.4,29.85,SSW,210,1.0,1.0,96,0.00,,,0.00,VWS V14.01,2013-01-12 09:46:00,
2013-01-12 04:47:00,47.3,46.2,29.85,SW,216,1.5,1.5,96,0.00,,,0.00,VWS V14.01,2013-01-12 09:47:00,
2013-01-12 04:50:00,47.2,46.1,29.85,SW,214,0.0,2.5,96,0.00,,,0.00,VWS V14.01,2013-01-12 09:50:00,
2013-01-12 04:51:00,47.0,45.8,29.85,SW,223,2.2,2.2,96,0.00,,,0.00,VWS V14.01,2013-01-12 09:51:00,
2013-01-12 04:52:00,47.0,45.8,29.85,SW,223,2.2,2.2,96,0.00,,,0.00,VWS V14.01,2013-01-12 09:52:00,
2013-01-12 04:53:00,47.2,46.0,29.85,SW,227,1.1,2.7,96,0.00,,,0.00,VWS V14.01,2013-01-12 09:53:00,
2013-01-12 04:56:00,47.1,46.2,29.86,SW,230,2.7,4.0,97,0.00,,,0.00,VWS V14.01,2013-01-12 09:56:00,
2013-01-12 04:58:00,47.1,46.4,29.86,SW,219,3.4,4.4,97,0.00,,,0.00,VWS V14.01,2013-01-12 09:58:00,
2013-01-12 04:59:00,46.9,46.1,29.85,SW,227,2.5,3.4,97,0.00,,,0.00,VWS V14.01,2013-01-12 09:59:00,
2013-01-12 05:01:00,47.8,47.3,29.86,SW,236,5.7,5.7,98,0.00,,,0.00,VWS V14.01,2013-01-12 10:01:00,
2013-01-12 05:03:00,47.8,47.1,29.85,SW,219,3.7,5.6,97,0.00,,,0.00,VWS V14.01,2013-01-12 10:03:00,
2013-01-12 05:05:00,48.3,47.6,29.85,SSW,212,4.7,4.7,97,0.00,,,0.00,VWS V14.01,2013-01-12 10:05:00,
2013-01-12 05:06:00,48.0,47.0,29.85,SSW,204,5.1,5.1,96,0.00,,,0.00,VWS V14.01,2013-01-12 10:06:00,
2013-01-12 05:08:00,47.3,46.0,29.84,SSW,210,3.5,4.0,95,0.00,,,0.00,VWS V14.01,2013-01-12 10:08:00,
2013-01-12 05:09:00,47.7,46.3,29.85,SSW,201,3.4,3.5,95,0.00,,,0.00,VWS V14.01,2013-01-12 10:09:00,
2013-01-12 05:12:00,47.4,46.0,29.84,SSW,206,4.0,4.0,95,0.00,,,0.00,VWS V14.01,2013-01-12 10:12:00,
2013-01-12 05:13:00,47.3,45.9,29.84,SSW,211,3.5,3.5,95,0.00,,,0.00,VWS V14.01,2013-01-12 10:13:00,
2013-01-12 05:14:00,47.4,46.0,29.84,SSW,211,4.7,4.7,95,0.00,,,0.00,VWS V14.01,2013-01-12 10:14:00,
2013-01-12 05:15:00,47.3,46.0,29.84,SSW,208,3.7,4.5,95,0.00,,,0.00,VWS V14.01,2013-01-12 10:15:00,
2013-01-12 05:17:00,47.2,46.0,29.85,SSW,200,2.8,3.9,96,0.00,,,0.00,VWS V14.01,2013-01-12 10:17:00,
2013-01-12 05:19:00,47.3,46.2,29.83,SW,214,4.2,4.2,96,0.00,,,0.00,VWS V14.01,2013-01-12 10:19:00,
2013-01-12 05:21:00,48.2,47.3,29.85,SSW,213,6.4,6.4,96,0.00,,,0.00,VWS V14.01,2013-01-12 10:21:00,
2013-01-12 05:22:00,48.3,47.3,29.84,SSW,211,5.7,6.4,96,0.00,,,0.00,VWS V14.01,2013-01-12 10:22:00,
2013-01-12 05:24:00,48.1,46.9,29.88,SSW,201,3.7,4.9,96,0.00,,,0.00,VWS V14.01,2013-01-12 10:24:00,
2013-01-12 05:26:00,48.1,46.9,29.85,SSW,213,4.2,6.3,95,0.00,,,0.00,VWS V14.01,2013-01-12 10:26:00,
2013-01-12 05:28:00,48.4,47.0,29.85,SW,233,3.4,4.2,95,0.00,,,0.00,VWS V14.01,2013-01-12 10:28:00,
2013-01-12 05:29:00,48.2,46.7,29.85,SW,229,3.5,3.5,95,0.00,,,0.00,VWS V14.01,2013-01-12 10:29:00,
2013-01-12 05:30:00,48.2,46.8,29.85,SW,228,3.9,3.9,95,0.00,,,0.00,VWS V14.01,2013-01-12 10:30:00,
2013-01-12 05:33:00,48.1,46.8,29.84,SW,222,3.5,5.4,95,0.00,,,0.00,VWS V14.01,2013-01-12 10:33:00,
2013-01-12 05:36:00,48.3,47.1,29.84,SW,228,5.7,5.7,95,0.00,,,0.00,VWS V14.01,2013-01-12 10:36:00,
2013-01-12 05:38:00,47.8,46.4,29.84,SW,226,4.0,4.0,95,0.00,,,0.00,VWS V14.01,2013-01-12 10:38:00,
2013-01-12 05:39:00,48.1,46.6,29.84,SW,214,3.0,4.0,95,0.00,,,0.00,VWS V14.01,2013-01-12 10:39:00,
2013-01-12 05:41:00,47.9,46.5,29.84,SSW,205,5.1,5.1,95,0.00,,,0.00,VWS V14.01,2013-01-12 10:41:00,
2013-01-12 05:44:00,48.4,46.9,29.84,SSW,199,4.9,4.9,95,0.00,,,0.00,VWS V14.01,2013-01-12 10:44:00,
2013-01-12 05:45:00,48.2,46.8,29.84,SSW,213,5.2,5.2,95,0.00,,,0.00,VWS V14.01,2013-01-12 10:45:00,
2013-01-12 05:46:00,47.9,46.2,29.85,SW,215,4.5,5.4,94,0.00,,,0.00,VWS V14.01,2013-01-12 10:46:00,
2013-01-12 05:49:00,48.7,47.0,29.85,SSW,211,7.6,7.6,94,0.00,,,0.00,VWS V14.01,2013-01-12 10:49:00,
2013-01-12 05:50:00,48.8,47.0,29.85,SW,218,8.0,8.3,94,0.00,,,0.00,VWS V14.01,2013-01-12 10:50:00,
2013-01-12 05:51:00,48.5,45.2,29.85,SW,218,6.6,6.6,88,0.00,,,0.00,VWS V14.01,2013-01-12 10:51:00,
2013-01-12 05:55:00,48.2,46.2,29.85,SW,220,5.7,5.7,93,0.00,,,0.00,VWS V14.01,2013-01-12 10:55:00,
2013-01-12 05:57:00,48.5,46.7,29.85,SW,230,5.9,8.1,93,0.00,,,0.00,VWS V14.01,2013-01-12 10:57:00,
2013-01-12 05:58:00,48.4,46.4,29.85,SW,221,5.4,5.9,93,0.00,,,0.00,VWS V14.01,2013-01-12 10:58:00,
2013-01-12 06:00:00,48.3,46.3,29.85,SW,224,5.6,7.1,93,0.00,,,0.00,VWS V14.01,2013-01-12 11:00:00,
2013-01-12 06:03:00,48.4,46.5,29.85,SSW,210,6.4,7.1,93,0.00,,,0.00,VWS V14.01,2013-01-12 11:03:00,
2013-01-12 06:04:00,48.7,46.8,29.85,SSW,203,4.7,5.1,93,0.00,,,0.00,VWS V14.01,2013-01-12 11:04:00,
2013-01-12 06:06:00,48.5,46.7,29.85,SW,225,5.9,6.1,93,0.00,,,0.00,VWS V14.01,2013-01-12 11:06:00,
2013-01-12 06:08:00,48.3,46.4,29.85,SW,227,4.0,4.0,93,0.00,,,0.00,VWS V14.01,2013-01-12 11:08:00,
2013-01-12 06:09:00,48.3,46.4,29.85,SW,233,5.4,6.1,93,0.00,,,0.00,VWS V14.01,2013-01-12 11:09:00,
2013-01-12 06:10:00,48.5,46.6,29.85,SSW,213,5.9,6.1,93,0.00,,,0.00,VWS V14.01,2013-01-12 11:10:00,
2013-01-12 06:11:00,48.7,47.0,29.88,SW,216,6.6,6.6,94,0.00,,,0.00,VWS V14.01,2013-01-12 11:11:00,
2013-01-12 06:14:00,48.6,46.6,29.84,SW,217,4.7,8.0,93,0.00,,,0.00,VWS V14.01,2013-01-12 11:14:00,
2013-01-12 06:15:00,48.6,46.7,29.85,SW,218,4.7,4.9,93,0.00,,,0.00,VWS V14.01,2013-01-12 11:15:00,
2013-01-12 06:16:00,48.6,46.7,29.85,SW,218,4.7,4.9,93,0.00,,,0.00,VWS V14.01,2013-01-12 11:16:00,
2013-01-12 06:17:00,48.6,46.7,29.86,SW,235,6.4,6.4,93,0.00,,,0.00,VWS V14.01,2013-01-12 11:17:00,
2013-01-12 06:19:00,48.5,46.6,29.86,SW,232,4.2,4.2,93,0.00,,,0.00,VWS V14.01,2013-01-12 11:19:00,
2013-01-12 06:22:00,48.9,46.4,29.86,SW,235,7.1,7.1,91,0.00,,,0.00,VWS V14.01,2013-01-12 11:22:00,
2013-01-12 06:23:00,49.1,47.3,29.86,SW,226,7.1,7.1,94,0.00,,,0.00,VWS V14.01,2013-01-12 11:23:00,
2013-01-12 06:24:00,48.3,46.5,29.86,SSW,212,5.2,5.2,93,0.00,,,0.00,VWS V14.01,2013-01-12 11:24:00,
2013-01-12 06:27:00,48.7,46.8,29.85,SSW,212,5.1,5.1,93,0.00,,,0.00,VWS V14.01,2013-01-12 11:27:00,
2013-01-12 06:28:00,48.5,46.6,29.85,SW,225,5.6,5.6,93,0.00,,,0.00,VWS V14.01,2013-01-12 11:28:00,
2013-01-12 06:29:00,48.2,46.3,29.85,SW,231,3.4,4.2,93,0.00,,,0.00,VWS V14.01,2013-01-12 11:29:00,
2013-01-12 06:32:00,48.9,47.1,29.86,SW,221,6.1,6.1,94,0.00,,,0.00,VWS V14.01,2013-01-12 11:32:00,
2013-01-12 06:33:00,48.8,47.1,29.86,SW,228,5.4,6.1,94,0.00,,,0.00,VWS V14.01,2013-01-12 11:33:00,
2013-01-12 06:34:00,48.5,45.4,29.85,SW,217,5.4,6.1,89,0.00,,,0.00,VWS V14.01,2013-01-12 11:34:00,
2013-01-12 06:35:00,48.2,46.3,29.86,SSW,210,3.2,3.2,93,0.00,,,0.00,VWS V14.01,2013-01-12 11:35:00,
2013-01-12 06:38:00,48.2,46.3,29.86,SW,224,5.4,5.4,93,0.00,,,0.00,VWS V14.01,2013-01-12 11:38:00,
2013-01-12 06:39:00,48.2,46.4,29.86,SW,227,5.6,7.1,94,0.00,,,0.00,VWS V14.01,2013-01-12 11:39:00,
2013-01-12 06:40:00,48.2,46.4,29.86,SW,221,4.9,5.6,93,0.00,,,0.00,VWS V14.01,2013-01-12 11:40:00,
2013-01-12 06:44:00,48.2,46.5,29.85,SW,226,3.9,4.5,94,0.00,,,0.00,VWS V14.01,2013-01-12 11:44:00,
2013-01-12 06:46:00,48.0,46.4,29.86,SW,228,5.2,5.2,94,0.00,,,0.00,VWS V14.01,2013-01-12 11:46:00,
2013-01-12 06:50:00,48.1,46.6,29.87,SW,236,4.7,6.9,95,0.00,,,0.00,VWS V14.01,2013-01-12 11:50:00,
2013-01-12 06:51:00,48.1,46.7,29.86,SW,221,6.4,6.4,95,0.00,,,0.00,VWS V14.01,2013-01-12 11:51:00,
2013-01-12 06:52:00,48.4,47.0,29.87,SW,217,6.3,6.8,95,0.00,,,0.00,VWS V14.01,2013-01-12 11:52:00,
2013-01-12 06:55:00,48.1,46.6,29.87,WSW,238,5.9,5.9,94,0.00,,,0.00,VWS V14.01,2013-01-12 11:55:00,
2013-01-12 06:56:00,48.1,46.6,29.87,WSW,238,5.9,5.9,94,0.00,,,0.00,VWS V14.01,2013-01-12 11:56:00,
2013-01-12 06:58:00,48.5,47.0,29.86,SW,229,5.4,7.1,95,0.00,,,0.00,VWS V14.01,2013-01-12 11:58:00,
2013-01-12 07:00:00,48.2,46.8,29.86,SW,223,6.1,7.6,95,0.00,,,0.00,VWS V14.01,2013-01-12 12:00:00,
2013-01-12 07:01:00,48.3,46.8,29.85,SW,218,7.6,7.6,95,0.00,,,0.00,VWS V14.01,2013-01-12 12:01:00,
2013-01-12 07:02:00,48.5,47.1,29.85,SW,229,5.2,7.6,95,0.00,,,0.00,VWS V14.01,2013-01-12 12:02:00,
2013-01-12 07:03:00,48.1,46.6,29.90,SW,233,5.1,5.2,94,0.00,,,0.00,VWS V14.01,2013-01-12 12:03:00,
2013-01-12 07:07:00,48.7,47.3,29.87,SW,217,8.1,8.1,95,0.00,,,0.00,VWS V14.01,2013-01-12 12:07:00,
2013-01-12 07:08:00,48.6,47.2,29.87,SW,224,8.3,8.3,95,0.00,,,0.00,VWS V14.01,2013-01-12 12:08:00,
2013-01-12 07:09:00,48.1,46.5,29.86,SSW,210,4.7,4.7,94,0.00,,,0.00,VWS V14.01,2013-01-12 12:09:00,
2013-01-12 07:13:00,48.4,46.9,29.87,SW,221,4.5,5.1,95,0.00,,,0.00,VWS V14.01,2013-01-12 12:13:00,
2013-01-12 07:14:00,48.1,46.6,29.86,SW,222,4.0,4.0,95,0.00,,,0.00,VWS V14.01,2013-01-12 12:14:00,
2013-01-12 07:15:00,48.3,46.8,29.86,SW,222,3.4,4.7,94,0.00,,,0.00,VWS V14.01,2013-01-12 12:15:00,
2013-01-12 07:19:00,48.4,47.0,29.86,SW,226,5.2,5.2,95,0.00,,,0.00,VWS V14.01,2013-01-12 12:19:00,
2013-01-12 07:20:00,48.2,46.9,29.86,SW,219,6.6,6.6,95,0.00,,,0.00,VWS V14.01,2013-01-12 12:20:00,
2013-01-12 07:24:00,47.5,46.2,29.87,SW,228,4.2,4.5,95,0.00,,,0.00,VWS V14.01,2013-01-12 12:24:00,
2013-01-12 07:25:00,48.1,45.0,29.87,SW,226,6.1,6.1,89,0.00,,,0.00,VWS V14.01,2013-01-12 12:25:00,
2013-01-12 07:26:00,47.7,46.6,29.87,SW,224,4.0,6.1,96,0.00,,,0.00,VWS V14.01,2013-01-12 12:26:00,
2013-01-12 07:30:00,47.8,46.7,29.87,SW,226,4.5,4.5,96,0.00,,,0.00,VWS V14.01,2013-01-12 12:30:00,
2013-01-12 07:31:00,48.2,47.2,29.87,SW,226,6.6,6.6,97,0.00,,,0.00,VWS V14.01,2013-01-12 12:31:00,
2013-01-12 07:32:00,48.1,47.2,29.87,SW,227,5.6,6.6,97,0.00,,,0.00,VWS V14.01,2013-01-12 12:32:00,
2013-01-12 07:36:00,47.6,46.6,29.87,SW,231,2.8,3.7,96,0.00,,,0.00,VWS V14.01,2013-01-12 12:36:00,
2013-01-12 07:37:00,47.5,46.6,29.87,SW,228,3.4,4.2,97,0.00,,,0.00,VWS V14.01,2013-01-12 12:37:00,
2013-01-12 07:39:00,48.0,45.3,29.88,SW,232,4.7,4.7,90,0.00,,,0.00,VWS V14.01,2013-01-12 12:39:00,
2013-01-12 07:42:00,48.7,48.0,29.88,SW,219,8.1,8.1,97,0.00,,,0.00,VWS V14.01,2013-01-12 12:42:00,
2013-01-12 07:44:00,48.5,47.7,29.88,SW,224,5.9,6.8,97,0.00,,,0.00,VWS V14.01,2013-01-12 12:44:00,
2013-01-12 07:46:00,48.8,48.0,29.88,SW,235,6.4,8.1,97,0.00,,,0.00,VWS V14.01,2013-01-12 12:46:00,
2013-01-12 07:48:00,48.5,47.4,29.87,WSW,250,5.9,5.9,96,0.00,,,0.00,VWS V14.01,2013-01-12 12:48:00,
2013-01-12 07:50:00,48.4,47.2,29.88,SW,228,5.4,5.4,95,0.00,,,0.00,VWS V14.01,2013-01-12 12:50:00,
2013-01-12 07:52:00,48.6,47.5,29.89,SW,222,6.3,6.3,96,0.00,,,0.00,VWS V14.01,2013-01-12 12:52:00,
2013-01-12 07:53:00,48.4,47.3,29.89,SW,229,5.6,5.6,96,0.00,,,0.00,VWS V14.01,2013-01-12 12:53:00,
2013-01-12 07:54:00,48.5,47.4,29.88,SW,234,4.7,6.4,96,0.00,,,0.00,VWS V14.01,2013-01-12 12:54:00,
2013-01-12 07:55:00,49.0,47.8,29.88,SW,235,6.3,6.3,96,0.00,,,0.00,VWS V14.01,2013-01-12 12:55:00,
2013-01-12 07:57:00,48.3,47.1,29.90,SSW,211,4.2,6.4,96,0.00,,,0.00,VWS V14.01,2013-01-12 12:57:00,
2013-01-12 07:59:00,48.5,47.4,29.90,WSW,238,8.5,8.8,96,0.00,,,0.00,VWS V14.01,2013-01-12 12:59:00,
2013-01-12 08:00:00,48.8,47.6,29.90,SW,233,6.8,8.5,96,0.00,,,0.00,VWS V14.01,2013-01-12 13:00:00,
2013-01-12 08:04:00,48.8,47.6,29.90,SW,229,4.5,7.3,95,0.00,,,0.00,VWS V14.01,2013-01-12 13:04:00,
2013-01-12 08:06:00,48.7,47.3,29.89,SW,220,3.7,5.4,95,0.00,,,0.00,VWS V14.01,2013-01-12 13:06:00,
2013-01-12 08:08:00,48.7,47.4,29.89,SW,234,4.5,4.5,95,0.00,,,0.00,VWS V14.01,2013-01-12 13:08:00,
2013-01-12 08:10:00,48.8,47.4,29.89,WSW,240,5.4,5.4,95,0.00,,,0.00,VWS V14.01,2013-01-12 13:10:00,
2013-01-12 08:12:00,49.4,48.2,29.89,SW,236,6.9,6.9,95,0.00,,,0.00,VWS V14.01,2013-01-12 13:12:00,
2013-01-12 08:13:00,49.2,47.9,29.93,SW,225,6.1,8.0,95,0.00,,,0.00,VWS V14.01,2013-01-12 13:13:00,
2013-01-12 08:15:00,49.3,48.0,29.90,SW,234,5.9,6.3,95,0.00,,,0.00,VWS V14.01,2013-01-12 13:15:00,
2013-01-12 08:16:00,49.3,47.8,29.90,SW,222,5.1,5.9,95,0.00,,,0.00,VWS V14.01,2013-01-12 13:16:00,
2013-01-12 08:18:00,49.3,47.8,29.91,WSW,240,6.6,6.6,94,0.00,,,0.00,VWS V14.01,2013-01-12 13:18:00,
2013-01-12 08:21:00,49.0,45.9,29.90,WSW,248,4.2,5.7,89,0.00,,,0.00,VWS V14.01,2013-01-12 13:21:00,
2013-01-12 08:23:00,49.7,48.2,29.90,SW,232,7.6,7.6,95,0.00,,,0.00,VWS V14.01,2013-01-12 13:23:00,
2013-01-12 08:26:00,50.3,48.5,29.90,WSW,243,9.9,9.9,93,0.00,,,0.00,VWS V14.01,2013-01-12 13:26:00,
2013-01-12 08:29:00,50.2,48.0,29.90,SW,231,7.6,7.6,92,0.00,,,0.00,VWS V14.01,2013-01-12 13:29:00,
2013-01-12 08:31:00,50.0,47.7,29.89,SW,236,6.3,7.6,92,0.00,,,0.00,VWS V14.01,2013-01-12 13:31:00,
2013-01-12 08:33:00,50.2,47.9,29.91,WSW,243,5.4,5.6,92,0.00,,,0.00,VWS V14.01,2013-01-12 13:33:00,
2013-01-12 08:34:00,50.2,48.0,29.90,WSW,249,6.9,6.9,92,0.00,,,0.00,VWS V14.01,2013-01-12 13:34:00,
2013-01-12 08:35:00,50.2,48.0,29.89,SW,224,5.2,6.1,92,0.00,,,0.00,VWS V14.01,2013-01-12 13:35:00,
2013-01-12 08:37:00,50.4,48.0,29.90,WSW,247,7.5,7.5,92,0.00,,,0.00,VWS V14.01,2013-01-12 13:37:00,
2013-01-12 08:38:00,50.3,48.0,29.90,West,261,8.8,8.8,92,0.00,,,0.00,VWS V14.01,2013-01-12 13:38:00,
2013-01-12 08:39:00,50.3,47.8,29.91,WSW,250,6.6,7.8,91,0.00,,,0.00,VWS V14.01,2013-01-12 13:39:00,
2013-01-12 08:40:00,50.1,47.5,29.92,WSW,248,6.6,7.8,91,0.00,,,0.00,VWS V14.01,2013-01-12 13:40:00,
2013-01-12 08:43:00,50.6,48.1,29.91,WSW,249,7.6,7.6,91,0.00,,,0.00,VWS V14.01,2013-01-12 13:43:00,
2013-01-12 08:45:00,50.3,47.8,29.90,WSW,237,4.5,7.6,91,0.00,,,0.00,VWS V14.01,2013-01-12 13:45:00,
2013-01-12 08:48:00,50.4,47.8,29.91,WSW,239,5.6,6.9,91,0.00,,,0.00,VWS V14.01,2013-01-12 13:48:00,
2013-01-12 08:52:00,50.5,47.8,29.90,SW,233,6.1,6.3,90,0.00,,,0.00,VWS V14.01,2013-01-12 13:52:00,
2013-01-12 08:54:00,50.8,48.1,29.90,WSW,253,6.3,6.3,91,0.00,,,0.00,VWS V14.01,2013-01-12 13:54:00,
2013-01-12 08:55:00,51.0,48.3,29.91,SW,235,6.1,6.3,91,0.00,,,0.00,VWS V14.01,2013-01-12 13:55:00,
2013-01-12 08:57:00,50.8,48.0,29.90,WSW,241,5.7,6.9,90,0.00,,,0.00,VWS V14.01,2013-01-12 13:57:00,
2013-01-12 08:58:00,50.7,47.9,29.90,WSW,249,5.6,5.7,90,0.00,,,0.00,VWS V14.01,2013-01-12 13:58:00,
2013-01-12 09:00:00,50.7,47.9,29.90,WSW,242,4.7,5.6,90,0.00,,,0.00,VWS V14.01,2013-01-12 14:00:00,
2013-01-12 09:02:00,50.7,47.9,29.91,WSW,237,4.4,4.9,90,0.00,,,0.00,VWS V14.01,2013-01-12 14:02:00,
2013-01-12 09:04:00,50.9,48.2,29.91,SW,228,5.4,5.4,90,0.00,,,0.00,VWS V14.01,2013-01-12 14:04:00,
2013-01-12 09:05:00,51.0,48.3,29.92,WSW,257,6.3,6.3,90,0.00,,,0.00,VWS V14.01,2013-01-12 14:05:00,
2013-01-12 09:07:00,51.0,48.4,29.94,WSW,252,5.4,5.4,91,0.00,,,0.00,VWS V14.01,2013-01-12 14:07:00,
2013-01-12 09:08:00,50.8,48.2,29.92,SW,230,5.7,5.7,91,0.00,,,0.00,VWS V14.01,2013-01-12 14:08:00,
2013-01-12 09:09:00,50.9,48.2,29.91,SW,224,5.1,5.7,91,0.00,,,0.00,VWS V14.01,2013-01-12 14:09:00,
2013-01-12 09:11:00,51.2,48.5,29.92,WSW,237,7.5,7.5,91,0.00,,,0.00,VWS V14.01,2013-01-12 14:11:00,
2013-01-12 09:13:00,51.0,48.3,29.92,SW,223,6.3,6.3,90,0.00,,,0.00,VWS V14.01,2013-01-12 14:13:00,
2013-01-12 09:14:00,51.2,48.4,29.91,WSW,243,6.4,6.4,90,0.00,,,0.00,VWS V14.01,2013-01-12 14:14:00,
2013-01-12 09:15:00,51.1,48.3,29.91,SW,236,5.7,6.4,90,0.00,,,0.00,VWS V14.01,2013-01-12 14:15:00,
2013-01-12 09:16:00,51.1,48.2,29.91,SW,231,5.6,6.9,90,0.00,,,0.00,VWS V14.01,2013-01-12 14:16:00,
2013-01-12 09:18:00,51.1,48.2,29.90,WSW,245,4.7,5.2,90,0.00,,,0.00,VWS V14.01,2013-01-12 14:18:00,
2013-01-12 09:20:00,51.2,48.3,29.90,West,261,5.6,8.3,90,0.00,,,0.00,VWS V14.01,2013-01-12 14:20:00,
2013-01-12 09:21:00,51.1,48.1,29.91,WSW,250,4.0,5.1,89,0.00,,,0.00,VWS V14.01,2013-01-12 14:21:00,
2013-01-12 09:23:00,51.5,48.3,29.89,WSW,248,6.8,7.3,89,0.00,,,0.00,VWS V14.01,2013-01-12 14:23:00,
2013-01-12 09:25:00,51.7,48.5,29.90,SW,229,7.5,7.5,89,0.00,,,0.00,VWS V14.01,2013-01-12 14:25:00,
2013-01-12 09:26:00,51.4,48.2,29.91,West,270,6.4,7.8,89,0.00,,,0.00,VWS V14.01,2013-01-12 14:26:00,
2013-01-12 09:27:00,51.5,48.2,29.94,WSW,247,5.6,8.5,88,0.00,,,0.00,VWS V14.01,2013-01-12 14:27:00,
2013-01-12 09:30:00,51.8,48.6,29.94,WSW,238,9.0,9.0,89,0.00,,,0.00,VWS V14.01,2013-01-12 14:30:00,
2013-01-12 09:31:00,51.7,48.3,29.92,SW,232,7.8,9.0,88,0.00,,,0.00,VWS V14.01,2013-01-12 14:31:00,
2013-01-12 09:35:00,52.0,48.5,29.91,WSW,247,7.5,7.5,88,0.00,,,0.00,VWS V14.01,2013-01-12 14:35:00,
2013-01-12 09:37:00,52.1,48.6,29.91,WSW,240,8.5,8.5,88,0.00,,,0.00,VWS V14.01,2013-01-12 14:37:00,
2013-01-12 09:38:00,52.1,48.6,29.92,WSW,243,8.1,8.5,88,0.00,,,0.00,VWS V14.01,2013-01-12 14:38:00,
2013-01-12 09:40:00,52.2,48.6,29.90,SW,229,6.8,8.7,88,0.00,,,0.00,VWS V14.01,2013-01-12 14:40:00,
2013-01-12 09:43:00,52.9,48.8,29.91,WSW,245,6.8,6.8,86,0.00,,,0.00,VWS V14.01,2013-01-12 14:43:00,
2013-01-12 09:44:00,52.8,48.5,29.92,West,267,7.6,7.6,85,0.00,,,0.00,VWS V14.01,2013-01-12 14:44:00,
2013-01-12 09:45:00,53.2,48.6,29.92,SW,236,6.6,7.6,84,0.00,,,0.00,VWS V14.01,2013-01-12 14:45:00,
2013-01-12 09:46:00,53.3,48.2,29.94,WSW,251,11.1,11.1,83,0.00,,,0.00,VWS V14.01,2013-01-12 14:46:00,
2013-01-12 09:49:00,53.3,47.8,29.92,WSW,242,8.8,9.3,81,0.00,,,0.00,VWS V14.01,2013-01-12 14:49:00,
2013-01-12 09:51:00,53.6,48.0,29.92,WSW,240,10.0,10.0,81,0.00,,,0.00,VWS V14.01,2013-01-12 14:51:00,
2013-01-12 09:54:00,53.7,48.0,29.91,WSW,245,8.0,8.0,81,0.00,,,0.00,VWS V14.01,2013-01-12 14:54:00,
2013-01-12 09:55:00,53.5,47.5,29.91,WSW,243,9.3,9.3,80,0.00,,,0.00,VWS V14.01,2013-01-12 14:55:00,
2013-01-12 09:56:00,53.6,48.0,29.92,SW,229,7.6,9.3,81,0.00,,,0.00,VWS V14.01,2013-01-12 14:56:00,
2013-01-12 09:57:00,53.3,47.8,29.92,WSW,254,8.0,9.0,82,0.00,,,0.00,VWS V14.01,2013-01-12 14:57:00,
2013-01-12 09:59:00,53.4,47.4,29.92,WSW,242,6.9,6.9,80,0.00,,,0.00,VWS V14.01,2013-01-12 14:59:00,
2013-01-12 10:00:00,53.6,48.2,29.92,SW,219,11.9,11.9,82,0.00,,,0.00,VWS V14.01,2013-01-12 15:00:00,
2013-01-12 10:01:00,53.5,48.0,29.91,WSW,238,9.2,10.9,82,0.00,,,0.00,VWS V14.01,2013-01-12 15:01:00,
2013-01-12 10:05:00,53.8,48.5,29.92,SW,235,6.1,10.9,82,0.00,,,0.00,VWS V14.01,2013-01-12 15:05:00,
2013-01-12 10:06:00,53.9,48.5,29.92,WSW,248,9.0,10.9,82,0.00,,,0.00,VWS V14.01,2013-01-12 15:06:00,
2013-01-12 10:07:00,54.3,48.4,29.91,WSW,251,11.4,11.4,80,0.00,,,0.00,VWS V14.01,2013-01-12 15:07:00,
2013-01-12 10:10:00,54.4,48.2,29.91,WSW,247,8.0,11.4,79,0.00,,,0.00,VWS V14.01,2013-01-12 15:10:00,
2013-01-12 10:11:00,54.6,47.9,29.92,WSW,239,11.2,11.4,78,0.00,,,0.00,VWS V14.01,2013-01-12 15:11:00,
2013-01-12 10:13:00,54.8,47.5,29.92,SW,225,11.2,14.1,76,0.00,,,0.00,VWS V14.01,2013-01-12 15:13:00,
2013-01-12 10:14:00,54.8,47.5,29.92,WSW,238,10.4,14.1,76,0.00,,,0.00,VWS V14.01,2013-01-12 15:14:00,
2013-01-12 10:15:00,54.9,47.7,29.91,SW,235,10.4,14.1,77,0.00,,,0.00,VWS V14.01,2013-01-12 15:15:00,
2013-01-12 10:17:00,55.5,48.1,29.92,SW,228,10.0,14.1,76,0.00,,,0.00,VWS V14.01,2013-01-12 15:17:00,
2013-01-12 10:20:00,55.0,47.3,29.92,WSW,246,13.1,14.1,75,0.00,,,0.00,VWS V14.01,2013-01-12 15:20:00,
2013-01-12 10:22:00,55.3,48.0,29.92,SW,223,8.5,14.1,76,0.00,,,0.00,VWS V14.01,2013-01-12 15:22:00,
2013-01-12 10:25:00,55.5,48.0,29.92,SW,214,7.1,14.1,76,0.00,,,0.00,VWS V14.01,2013-01-12 15:25:00,
2013-01-12 10:26:00,55.2,47.6,29.92,WSW,240,9.3,14.1,75,0.00,,,0.00,VWS V14.01,2013-01-12 15:26:00,
2013-01-12 10:28:00,55.7,48.0,29.92,WSW,244,7.8,14.1,75,0.00,,,0.00,VWS V14.01,2013-01-12 15:28:00,
2013-01-12 10:30:00,55.8,47.7,29.91,SW,233,10.9,14.1,74,0.00,,,0.00,VWS V14.01,2013-01-12 15:30:00,
2013-01-12 10:31:00,55.7,47.9,29.91,SW,223,7.6,14.1,75,0.00,,,0.00,VWS V14.01,2013-01-12 15:31:00,
2013-01-12 10:35:00,55.7,47.5,29.91,WSW,239,8.7,14.1,74,0.00,,,0.00,VWS V14.01,2013-01-12 15:35:00,
2013-01-12 10:36:00,55.9,47.9,29.91,SW,220,8.0,14.1,74,0.00,,,0.00,VWS V14.01,2013-01-12 15:36:00,
2013-01-12 10:37:00,55.6,47.2,29.91,SW,224,12.4,14.1,73,0.00,,,0.00,VWS V14.01,2013-01-12 15:37:00,
2013-01-12 10:38:00,55.6,47.3,29.91,SW,225,10.4,14.1,74,0.00,,,0.00,VWS V14.01,2013-01-12 15:38:00,
2013-01-12 10:41:00,55.5,47.5,29.94,SW,231,12.8,14.1,74,0.00,,,0.00,VWS V14.01,2013-01-12 15:41:00,
2013-01-12 10:42:00,55.3,47.3,29.92,WSW,244,11.7,14.1,74,0.00,,,0.00,VWS V14.01,2013-01-12 15:42:00,
2013-01-12 10:45:00,55.5,47.6,29.92,SW,232,12.4,14.1,74,0.00,,,0.00,VWS V14.01,2013-01-12 15:45:00,
2013-01-12 10:46:00,55.4,47.4,29.92,SW,234,11.6,14.1,74,0.00,,,0.00,VWS V14.01,2013-01-12 15:46:00,
2013-01-12 10:48:00,55.3,47.3,29.92,WSW,238,9.5,14.1,74,0.00,,,0.00,VWS V14.01,2013-01-12 15:48:00,
2013-01-12 10:51:00,55.5,48.0,29.91,WSW,239,7.5,14.1,76,0.00,,,0.00,VWS V14.01,2013-01-12 15:51:00,
2013-01-12 10:53:00,55.7,47.8,29.91,WSW,249,8.7,14.1,75,0.00,,,0.00,VWS V14.01,2013-01-12 15:53:00,
2013-01-12 10:56:00,55.5,47.3,29.91,WSW,242,9.2,14.1,74,0.00,,,0.00,VWS V14.01,2013-01-12 15:56:00,
2013-01-12 10:57:00,55.6,47.7,29.91,SW,235,8.5,14.1,75,0.00,,,0.00,VWS V14.01,2013-01-12 15:57:00,
2013-01-12 10:58:00,55.4,47.4,29.91,West,271,7.8,14.1,75,0.00,,,0.00,VWS V14.01,2013-01-12 15:58:00,
2013-01-12 11:00:00,55.8,48.0,29.90,WSW,248,9.2,14.1,75,0.00,,,0.00,VWS V14.01,2013-01-12 16:00:00,
2013-01-12 11:02:00,55.5,47.1,29.92,West,259,12.9,12.9,73,0.00,,,0.00,VWS V14.01,2013-01-12 16:02:00,
2013-01-12 11:03:00,55.6,47.8,29.92,WNW,282,9.2,10.7,75,0.00,,,0.00,VWS V14.01,2013-01-12 16:03:00,
2013-01-12 11:04:00,55.8,47.6,29.91,SW,236,11.7,11.7,74,0.00,,,0.00,VWS V14.01,2013-01-12 16:04:00,
2013-01-12 11:06:00,55.9,47.5,29.92,WSW,248,12.9,12.9,73,0.00,,,0.00,VWS V14.01,2013-01-12 16:06:00,
2013-01-12 11:09:00,56.1,47.6,29.91,WSW,246,8.3,8.3,73,0.00,,,0.00,VWS V14.01,2013-01-12 16:09:00,
2013-01-12 11:10:00,56.2,48.1,29.90,WSW,239,7.1,7.8,74,0.00,,,0.00,VWS V14.01,2013-01-12 16:10:00,
2013-01-12 11:11:00,56.2,48.1,29.90,WSW,239,7.1,7.8,74,0.00,,,0.00,VWS V14.01,2013-01-12 16:11:00,
2013-01-12 11:15:00,56.3,48.2,29.92,WSW,250,5.7,5.7,74,0.00,,,0.00,VWS V14.01,2013-01-12 16:15:00,
2013-01-12 11:16:00,56.1,47.7,29.91,WSW,243,8.5,8.5,73,0.00,,,0.00,VWS V14.01,2013-01-12 16:16:00,
2013-01-12 11:17:00,56.0,47.4,29.92,WSW,241,10.5,10.5,73,0.00,,,0.00,VWS V14.01,2013-01-12 16:17:00,
2013-01-12 11:20:00,55.9,47.4,29.91,WSW,255,9.9,11.2,73,0.00,,,0.00,VWS V14.01,2013-01-12 16:20:00,
2013-01-12 11:21:00,56.2,47.5,29.92,West,261,10.4,10.4,72,0.00,,,0.00,VWS V14.01,2013-01-12 16:21:00,
2013-01-12 11:23:00,56.2,48.0,29.91,WSW,245,7.3,8.8,74,0.00,,,0.00,VWS V14.01,2013-01-12 16:23:00,
2013-01-12 11:25:00,56.3,47.6,29.91,WSW,251,8.5,8.5,72,0.00,,,0.00,VWS V14.01,2013-01-12 16:25:00,
2013-01-12 11:26:00,56.5,47.7,29.90,WSW,256,8.3,8.5,72,0.00,,,0.00,VWS V14.01,2013-01-12 16:26:00,
2013-01-12 11:28:00,56.8,48.2,29.91,WSW,240,5.9,7.6,73,0.00,,,0.00,VWS V14.01,2013-01-12 16:28:00,
2013-01-12 11:30:00,56.5,47.9,29.91,West,264,5.7,10.0,73,0.00,,,0.00,VWS V14.01,2013-01-12 16:30:00,
2013-01-12 11:32:00,56.7,47.9,29.91,WSW,247,7.5,7.5,72,0.00,,,0.00,VWS V14.01,2013-01-12 16:32:00,
2013-01-12 11:35:00,56.5,47.8,29.91,SW,234,6.6,6.6,73,0.00,,,0.00,VWS V14.01,2013-01-12 16:35:00,
2013-01-12 11:36:00,57.0,48.5,29.91,SW,221,4.7,8.0,73,0.00,,,0.00,VWS V14.01,2013-01-12 16:36:00,
2013-01-12 11:38:00,56.7,47.9,29.92,WSW,239,5.9,11.2,72,0.00,,,0.00,VWS V14.01,2013-01-12 16:38:00,
2013-01-12 11:41:00,57.1,48.2,29.91,SW,221,8.1,9.2,72,0.00,,,0.00,VWS V14.01,2013-01-12 16:41:00,
2013-01-12 11:42:00,56.7,47.4,29.91,WSW,241,8.0,9.3,71,0.00,,,0.00,VWS V14.01,2013-01-12 16:42:00,
2013-01-12 11:43:00,56.8,47.6,29.92,WSW,239,9.9,9.9,71,0.00,,,0.00,VWS V14.01,2013-01-12 16:43:00,
2013-01-12 11:44:00,56.8,47.6,29.92,WSW,239,9.9,9.9,71,0.00,,,0.00,VWS V14.01,2013-01-12 16:44:00,
2013-01-12 11:46:00,56.9,47.4,29.90,SW,232,12.1,12.1,70,0.00,,,0.00,VWS V14.01,2013-01-12 16:46:00,
2013-01-12 11:49:00,57.0,47.1,29.90,WSW,246,10.5,10.5,70,0.00,,,0.00,VWS V14.01,2013-01-12 16:49:00,
2013-01-12 11:50:00,57.2,47.5,29.90,WSW,252,13.1,13.1,70,0.00,,,0.00,VWS V14.01,2013-01-12 16:50:00,
2013-01-12 11:51:00,56.8,47.2,29.90,WSW,248,11.4,11.4,70,0.00,,,0.00,VWS V14.01,2013-01-12 16:51:00,
2013-01-12 11:54:00,57.0,47.1,29.90,WSW,238,11.1,11.1,69,0.00,,,0.00,VWS V14.01,2013-01-12 16:54:00,
2013-01-12 11:55:00,57.3,47.5,29.91,WSW,237,12.1,12.1,70,0.00,,,0.00,VWS V14.01,2013-01-12 16:55:00,
2013-01-12 11:58:00,57.0,47.1,29.90,West,266,10.4,11.6,69,0.00,,,0.00,VWS V14.01,2013-01-12 16:58:00,
2013-01-12 12:00:00,57.1,47.3,29.90,SW,229,13.1,13.1,70,0.00,,,0.00,VWS V14.01,2013-01-12 17:00:00,
2013-01-12 12:01:00,57.1,47.3,29.90,SW,229,13.1,13.1,70,0.00,,,0.00,VWS V14.01,2013-01-12 17:01:00,
2013-01-12 12:03:00,57.0,46.8,29.91,West,259,12.1,12.1,69,0.00,,,0.00,VWS V14.01,2013-01-12 17:03:00,
2013-01-12 12:05:00,57.2,47.0,29.90,WSW,256,14.0,14.0,69,0.00,,,0.00,VWS V14.01,2013-01-12 17:05:00,
2013-01-12 12:06:00,57.2,47.0,29.90,WSW,256,14.0,14.0,69,0.00,,,0.00,VWS V14.01,2013-01-12 17:06:00,
2013-01-12 12:09:00,57.5,47.5,29.89,WSW,251,11.6,11.6,69,0.00,,,0.00,VWS V14.01,2013-01-12 17:09:00,
2013-01-12 12:10:00,57.1,46.6,29.90,WSW,243,12.4,12.6,68,0.00,,,0.00,VWS V14.01,2013-01-12 17:10:00,
2013-01-12 12:11:00,57.6,47.7,29.91,WSW,257,10.0,11.4,69,0.00,,,0.00,VWS V14.01,2013-01-12 17:11:00,
2013-01-12 12:15:00,57.8,47.3,29.91,SW,230,11.9,11.9,68,0.00,,,0.00,VWS V14.01,2013-01-12 17:15:00,
2013-01-12 12:16:00,57.5,46.8,29.90,WSW,253,11.7,12.4,67,0.00,,,0.00,VWS V14.01,2013-01-12 17:16:00,
2013-01-12 12:17:00,57.6,47.0,29.90,SW,236,9.7,11.7,68,0.00,,,0.00,VWS V14.01,2013-01-12 17:17:00,
2013-01-12 12:20:00,57.7,45.2,29.90,WSW,238,11.1,11.1,63,0.00,,,0.00,VWS V14.01,2013-01-12 17:20:00,
2013-01-12 12:21:00,57.5,46.8,29.90,West,276,11.2,11.2,67,0.00,,,0.00,VWS V14.01,2013-01-12 17:21:00,
2013-01-12 12:22:00,57.5,46.3,29.89,WSW,252,14.1,14.1,66,0.00,,,0.00,VWS V14.01,2013-01-12 17:22:00,
2013-01-12 12:24:00,58.0,46.8,29.89,SW,221,10.4,12.4,66,0.00,,,0.00,VWS V14.01,2013-01-12 17:24:00,
2013-01-12 12:25:00,57.9,46.1,29.89,WSW,241,12.1,12.1,65,0.00,,,0.00,VWS V14.01,2013-01-12 17:25:00,
2013-01-12 12:26:00,58.0,46.9,29.89,WSW,241,11.4,11.4,67,0.00,,,0.00,VWS V14.01,2013-01-12 17:26:00,
2013-01-12 12:27:00,57.8,46.3,29.89,West,270,11.7,11.7,65,0.00,,,0.00,VWS V14.01,2013-01-12 17:27:00,
2013-01-12 12:29:00,58.1,47.1,29.88,WSW,250,8.3,12.6,67,0.00,,,0.00,VWS V14.01,2013-01-12 17:29:00,
2013-01-12 12:31:00,57.8,46.3,29.88,WSW,241,14.1,14.1,66,0.00,,,0.00,VWS V14.01,2013-01-12 17:31:00,
2013-01-12 12:32:00,58.1,47.1,29.88,WSW,252,9.9,9.9,67,0.00,,,0.00,VWS V14.01,2013-01-12 17:32:00,
2013-01-12 12:35:00,57.9,46.2,29.89,WSW,249,11.4,11.4,65,0.00,,,0.00,VWS V14.01,2013-01-12 17:35:00,
2013-01-12 12:36:00,58.1,46.5,29.89,WSW,237,12.1,12.1,65,0.00,,,0.00,VWS V14.01,2013-01-12 17:36:00,
2013-01-12 12:37:00,58.0,46.3,29.89,West,269,10.7,10.7,65,0.00,,,0.00,VWS V14.01,2013-01-12 17:37:00,
2013-01-12 12:38:00,58.0,46.3,29.89,WSW,244,11.7,11.7,65,0.00,,,0.00,VWS V14.01,2013-01-12 17:38:00,
2013-01-12 12:41:00,58.4,47.1,29.89,WSW,237,9.3,9.3,66,0.00,,,0.00,VWS V14.01,2013-01-12 17:41:00,
2013-01-12 12:42:00,58.0,46.1,29.89,West,261,11.4,11.4,64,0.00,,,0.00,VWS V14.01,2013-01-12 17:42:00,
2013-01-12 12:43:00,58.2,46.1,29.88,WSW,240,11.9,13.3,64,0.00,,,0.00,VWS V14.01,2013-01-12 17:43:00,
2013-01-12 12:44:00,58.6,46.7,29.88,WSW,244,10.2,11.9,64,0.00,,,0.00,VWS V14.01,2013-01-12 17:44:00,
2013-01-12 12:46:00,58.0,45.8,29.90,West,263,11.6,11.6,64,0.00,,,0.00,VWS V14.01,2013-01-12 17:46:00,
2013-01-12 12:47:00,58.0,45.8,29.90,West,263,11.6,11.6,64,0.00,,,0.00,VWS V14.01,2013-01-12 17:47:00,
2013-01-12 12:49:00,58.1,45.8,29.88,WSW,249,13.3,15.3,63,0.00,,,0.00,VWS V14.01,2013-01-12 17:49:00,
2013-01-12 12:53:00,58.5,46.7,29.90,WSW,243,10.5,11.9,65,0.00,,,0.00,VWS V14.01,2013-01-12 17:53:00,
2013-01-12 12:54:00,58.1,45.6,29.89,WSW,251,12.6,13.8,63,0.00,,,0.00,VWS V14.01,2013-01-12 17:54:00,
2013-01-12 12:55:00,58.6,46.2,29.90,SW,226,12.4,12.6,63,0.00,,,0.00,VWS V14.01,2013-01-12 17:55:00,
2013-01-12 12:58:00,58.0,45.4,29.89,WSW,251,12.6,12.6,63,0.00,,,0.00,VWS V14.01,2013-01-12 17:58:00,
2013-01-12 13:00:00,58.7,46.7,29.90,WSW,238,10.4,14.8,64,0.00,,,0.00,VWS V14.01,2013-01-12 18:00:00,
2013-01-12 13:03:00,58.9,46.7,29.88,WSW,256,10.7,14.8,64,0.00,,,0.00,VWS V14.01,2013-01-12 18:03:00,
2013-01-12 13:06:00,59.2,46.5,29.89,SW,225,10.0,14.8,63,0.00,,,0.00,VWS V14.01,2013-01-12 18:06:00,
2013-01-12 13:08:00,59.2,45.8,29.88,WSW,245,13.1,14.8,61,0.00,,,0.00,VWS V14.01,2013-01-12 18:08:00,
2013-01-12 13:09:00,59.0,45.6,29.88,WSW,241,12.4,14.8,61,0.00,,,0.00,VWS V14.01,2013-01-12 18:09:00,
2013-01-12 13:11:00,59.0,45.3,29.89,WSW,240,11.9,14.8,60,0.00,,,0.00,VWS V14.01,2013-01-12 18:11:00,
2013-01-12 13:12:00,59.3,45.5,29.89,West,266,13.8,15.0,60,0.00,,,0.00,VWS V14.01,2013-01-12 18:12:00,
2013-01-12 13:13:00,59.1,45.5,29.90,SW,230,12.6,15.0,61,0.00,,,0.00,VWS V14.01,2013-01-12 18:13:00,
2013-01-12 13:15:00,59.1,45.0,29.89,SW,229,15.3,15.7,59,0.00,,,0.00,VWS V14.01,2013-01-12 18:15:00,
2013-01-12 13:16:00,59.1,45.0,29.88,WSW,250,13.3,15.7,59,0.00,,,0.00,VWS V14.01,2013-01-12 18:16:00,
2013-01-12 13:18:00,59.0,45.5,29.88,WSW,247,11.9,15.7,61,0.00,,,0.00,VWS V14.01,2013-01-12 18:18:00,
2013-01-12 13:20:00,59.1,45.0,29.89,WSW,249,14.3,15.8,59,0.00,,,0.00,VWS V14.01,2013-01-12 18:20:00,
2013-01-12 13:21:00,59.2,45.3,29.89,WSW,257,10.9,15.8,60,0.00,,,0.00,VWS V14.01,2013-01-12 18:21:00,
2013-01-12 13:23:00,58.7,44.5,29.89,WSW,248,14.5,15.8,59,0.00,,,0.00,VWS V14.01,2013-01-12 18:23:00,
2013-01-12 13:24:00,58.9,45.5,29.89,SW,236,10.0,15.8,61,0.00,,,0.00,VWS V14.01,2013-01-12 18:24:00,
2013-01-12 13:26:00,59.5,46.7,29.88,SW,235,8.5,15.8,63,0.00,,,0.00,VWS V14.01,2013-01-12 18:26:00,
2013-01-12 13:28:00,58.8,45.2,29.88,WSW,241,12.8,15.8,60,0.00,,,0.00,VWS V14.01,2013-01-12 18:28:00,
2013-01-12 13:29:00,58.8,45.5,29.90,WSW,251,12.4,15.8,61,0.00,,,0.00,VWS V14.01,2013-01-12 18:29:00,
2013-01-12 13:31:00,58.5,45.5,29.89,West,276,12.8,15.8,62,0.00,,,0.00,VWS V14.01,2013-01-12 18:31:00,
2013-01-12 13:33:00,58.4,45.6,29.89,West,260,12.8,15.8,62,0.00,,,0.00,VWS V14.01,2013-01-12 18:33:00,
2013-01-12 13:34:00,58.3,45.1,29.90,WSW,256,11.7,15.8,62,0.00,,,0.00,VWS V14.01,2013-01-12 18:34:00,
2013-01-12 13:38:00,59.7,46.9,29.90,WSW,240,8.5,15.8,63,0.00,,,0.00,VWS V14.01,2013-01-12 18:38:00,
2013-01-12 13:39:00,59.1,46.0,29.90,West,261,8.8,15.8,62,0.00,,,0.00,VWS V14.01,2013-01-12 18:39:00,
2013-01-12 13:44:00,59.2,46.4,29.89,WSW,248,10.7,15.8,63,0.00,,,0.00,VWS V14.01,2013-01-12 18:44:00,
2013-01-12 13:45:00,59.3,46.1,29.90,WSW,250,11.7,15.8,62,0.00,,,0.00,VWS V14.01,2013-01-12 18:45:00,
2013-01-12 13:47:00,59.7,46.4,29.89,WSW,241,11.7,15.8,61,0.00,,,0.00,VWS V14.01,2013-01-12 18:47:00,
2013-01-12 13:49:00,59.9,46.5,29.90,WSW,237,9.5,15.8,61,0.00,,,0.00,VWS V14.01,2013-01-12 18:49:00,
2013-01-12 13:50:00,59.2,45.0,29.89,WSW,250,12.4,15.8,59,0.00,,,0.00,VWS V14.01,2013-01-12 18:50:00,
2013-01-12 13:51:00,59.7,45.8,29.89,WSW,237,13.5,15.8,60,0.00,,,0.00,VWS V14.01,2013-01-12 18:51:00,
2013-01-12 13:52:00,59.3,45.3,29.89,WSW,242,11.7,15.8,60,0.00,,,0.00,VWS V14.01,2013-01-12 18:52:00,
2013-01-12 13:54:00,59.7,45.9,29.91,WSW,258,10.4,15.8,60,0.00,,,0.00,VWS V14.01,2013-01-12 18:54:00,
2013-01-12 13:55:00,60.0,45.8,29.91,WSW,256,11.7,15.8,59,0.00,,,0.00,VWS V14.01,2013-01-12 18:55:00,
2013-01-12 13:56:00,59.3,44.8,29.91,WSW,245,11.9,15.8,58,0.00,,,0.00,VWS V14.01,2013-01-12 18:56:00,
2013-01-12 13:57:00,60.2,46.5,29.91,WSW,246,12.3,15.8,61,0.00,,,0.00,VWS V14.01,2013-01-12 18:57:00,
2013-01-12 14:01:00,59.2,44.3,29.91,WSW,241,14.3,15.8,58,0.00,,,0.00,VWS V14.01,2013-01-12 19:01:00,
2013-01-12 14:02:00,59.4,45.0,29.91,WSW,239,12.1,15.8,59,0.00,,,0.00,VWS V14.01,2013-01-12 19:02:00,
2013-01-12 14:03:00,59.3,44.6,29.90,WSW,256,16.0,16.0,58,0.00,,,0.00,VWS V14.01,2013-01-12 19:03:00,
2013-01-12 14:06:00,60.4,46.1,29.90,WSW,240,11.1,13.6,59,0.00,,,0.00,VWS V14.01,2013-01-12 19:06:00,
2013-01-12 14:07:00,59.8,44.9,29.91,WSW,258,11.4,12.3,58,0.00,,,0.00,VWS V14.01,2013-01-12 19:07:00,
2013-01-12 14:08:00,59.7,44.7,29.91,WSW,256,11.7,12.3,58,0.00,,,0.00,VWS V14.01,2013-01-12 19:08:00,
2013-01-12 14:09:00,60.5,46.3,29.90,West,263,9.2,11.7,59,0.00,,,0.00,VWS V14.01,2013-01-12 19:09:00,
2013-01-12 14:11:00,59.7,45.0,29.90,WSW,252,9.2,9.2,58,0.00,,,0.00,VWS V14.01,2013-01-12 19:11:00,
2013-01-12 14:13:00,59.2,44.5,29.91,WSW,251,11.2,11.2,58,0.00,,,0.00,VWS V14.01,2013-01-12 19:13:00,
2013-01-12 14:14:00,59.3,45.0,29.91,WSW,242,13.8,13.8,59,0.00,,,0.00,VWS V14.01,2013-01-12 19:14:00,
2013-01-12 14:15:00,59.5,45.3,29.91,WSW,250,12.1,13.6,59,0.00,,,0.00,VWS V14.01,2013-01-12 19:15:00,
2013-01-12 14:17:00,60.6,47.0,29.91,West,262,6.4,10.4,61,0.00,,,0.00,VWS V14.01,2013-01-12 19:17:00,
2013-01-12 14:18:00,59.4,45.0,29.90,West,260,9.3,9.3,59,0.00,,,0.00,VWS V14.01,2013-01-12 19:18:00,
2013-01-12 14:19:00,60.0,46.1,29.91,WSW,251,10.7,10.7,60,0.00,,,0.00,VWS V14.01,2013-01-12 19:19:00,
2013-01-12 14:21:00,60.5,46.1,29.91,SW,231,8.5,9.3,59,0.00,,,0.00,VWS V14.01,2013-01-12 19:21:00,
2013-01-12 14:22:00,61.1,46.6,29.91,SW,230,6.9,6.9,59,0.00,,,0.00,VWS V14.01,2013-01-12 19:22:00,
2013-01-12 14:23:00,60.4,45.2,29.91,WSW,237,11.2,11.2,57,0.00,,,0.00,VWS V14.01,2013-01-12 19:23:00,
2013-01-12 14:24:00,60.3,45.2,29.91,SW,236,8.0,11.2,57,0.00,,,0.00,VWS V14.01,2013-01-12 19:24:00,
2013-01-12 14:26:00,60.5,45.0,29.90,SW,236,10.0,10.0,56,0.00,,,0.00,VWS V14.01,2013-01-12 19:26:00,
2013-01-12 14:28:00,60.4,44.9,29.90,SW,233,9.9,9.9,56,0.00,,,0.00,VWS V14.01,2013-01-12 19:28:00,
2013-01-12 14:29:00,60.4,44.9,29.89,SW,226,11.1,11.1,57,0.00,,,0.00,VWS V14.01,2013-01-12 19:29:00,
2013-01-12 14:31:00,60.2,44.6,29.89,SW,234,10.5,10.9,56,0.00,,,0.00,VWS V14.01,2013-01-12 19:31:00,
2013-01-12 14:34:00,60.4,45.4,29.90,WSW,248,8.8,10.5,58,0.00,,,0.00,VWS V14.01,2013-01-12 19:34:00,
2013-01-12 14:35:00,59.5,44.0,29.90,West,261,10.7,10.7,56,0.00,,,0.00,VWS V14.01,2013-01-12 19:35:00,
2013-01-12 14:36:00,60.4,45.3,29.93,WSW,247,10.5,11.7,57,0.00,,,0.00,VWS V14.01,2013-01-12 19:36:00,
2013-01-12 14:37:00,60.7,45.5,29.91,SW,236,6.8,10.9,57,0.00,,,0.00,VWS V14.01,2013-01-12 19:37:00,
2013-01-12 14:39:00,60.5,44.2,29.91,SW,217,12.8,12.8,55,0.00,,,0.00,VWS V14.01,2013-01-12 19:39:00,
2013-01-12 14:40:00,60.5,44.4,29.91,SW,223,11.2,12.8,55,0.00,,,0.00,VWS V14.01,2013-01-12 19:40:00,
2013-01-12 14:41:00,60.9,45.2,29.90,SW,226,8.8,11.2,56,0.00,,,0.00,VWS V14.01,2013-01-12 19:41:00,
2013-01-12 14:42:00,60.9,44.7,29.93,SW,228,8.8,8.8,55,0.00,,,0.00,VWS V14.01,2013-01-12 19:42:00,
2013-01-12 14:44:00,60.6,43.8,29.91,WSW,241,8.3,11.4,54,0.00,,,0.00,VWS V14.01,2013-01-12 19:44:00,
2013-01-12 14:46:00,60.7,44.8,29.90,West,260,10.4,10.4,56,0.00,,,0.00,VWS V14.01,2013-01-12 19:46:00,
2013-01-12 14:48:00,60.3,44.4,29.91,WSW,243,13.3,13.3,56,0.00,,,0.00,VWS V14.01,2013-01-12 19:48:00,
2013-01-12 14:50:00,60.2,44.7,29.90,WSW,245,10.4,10.4,56,0.00,,,0.00,VWS V14.01,2013-01-12 19:50:00,
2013-01-12 14:51:00,60.7,45.3,29.90,WSW,242,9.2,10.4,57,0.00,,,0.00,VWS V14.01,2013-01-12 19:51:00,
2013-01-12 14:52:00,60.7,45.5,29.91,SW,223,9.0,9.3,57,0.00,,,0.00,VWS V14.01,2013-01-12 19:52:00,
2013-01-12 14:54:00,61.0,46.0,29.91,SW,234,6.4,9.9,58,0.00,,,0.00,VWS V14.01,2013-01-12 19:54:00,
2013-01-12 14:56:00,60.2,44.6,29.91,SW,214,12.4,12.4,56,0.00,,,0.00,VWS V14.01,2013-01-12 19:56:00,
2013-01-12 14:59:00,60.7,45.4,29.91,SW,232,9.0,12.1,57,0.00,,,0.00,VWS V14.01,2013-01-12 19:59:00,
2013-01-12 15:01:00,60.8,45.1,29.91,SW,231,9.0,9.0,56,0.00,,,0.00,VWS V14.01,2013-01-12 20:01:00,
2013-01-12 15:04:00,60.6,45.0,29.90,WSW,254,7.5,12.3,56,0.00,,,0.00,VWS V14.01,2013-01-12 20:04:00,
2013-01-12 15:05:00,60.9,45.3,29.90,WSW,241,9.3,12.3,56,0.00,,,0.00,VWS V14.01,2013-01-12 20:05:00,
2013-01-12 15:07:00,59.8,43.6,29.91,SSW,198,11.2,11.2,55,0.00,,,0.00,VWS V14.01,2013-01-12 20:07:00,
2013-01-12 15:10:00,59.7,44.8,29.91,SW,232,8.8,11.1,58,0.00,,,0.00,VWS V14.01,2013-01-12 20:10:00,
2013-01-12 15:12:00,59.4,45.0,29.91,SSW,210,9.2,9.2,59,0.00,,,0.00,VWS V14.01,2013-01-12 20:12:00,
2013-01-12 15:15:00,59.4,45.3,29.91,WSW,238,7.8,7.8,60,0.00,,,0.00,VWS V14.01,2013-01-12 20:15:00,
2013-01-12 15:16:00,59.9,45.8,29.91,SW,220,7.6,9.5,60,0.00,,,0.00,VWS V14.01,2013-01-12 20:16:00,
2013-01-12 15:18:00,60.2,46.1,29.91,WSW,243,5.6,7.8,60,0.00,,,0.00,VWS V14.01,2013-01-12 20:18:00,
2013-01-12 15:20:00,59.8,45.3,29.90,SSW,197,9.5,9.5,59,0.00,,,0.00,VWS V14.01,2013-01-12 20:20:00,
2013-01-12 15:21:00,59.8,45.3,29.90,SW,216,10.9,10.9,58,0.00,,,0.00,VWS V14.01,2013-01-12 20:21:00,
2013-01-12 15:23:00,59.7,45.3,29.91,SW,224,11.6,11.6,59,0.00,,,0.00,VWS V14.01,2013-01-12 20:23:00,
2013-01-12 15:27:00,59.4,45.6,29.90,SW,228,8.0,8.3,60,0.00,,,0.00,VWS V14.01,2013-01-12 20:27:00,
2013-01-12 15:28:00,59.4,45.7,29.90,SW,223,7.5,8.3,60,0.00,,,0.00,VWS V14.01,2013-01-12 20:28:00,
2013-01-12 15:30:00,59.3,45.8,29.90,SW,232,7.3,7.3,61,0.00,,,0.00,VWS V14.01,2013-01-12 20:30:00,
2013-01-12 15:33:00,59.3,45.6,29.91,SW,224,8.3,9.2,60,0.00,,,0.00,VWS V14.01,2013-01-12 20:33:00,
2013-01-12 15:34:00,59.2,45.7,29.90,WSW,238,6.9,6.9,61,0.00,,,0.00,VWS V14.01,2013-01-12 20:34:00,
2013-01-12 15:35:00,59.2,45.5,29.91,SW,225,8.3,8.3,60,0.00,,,0.00,VWS V14.01,2013-01-12 20:35:00,
2013-01-12 15:39:00,59.1,45.7,29.91,WSW,253,5.2,7.6,61,0.00,,,0.00,VWS V14.01,2013-01-12 20:39:00,
2013-01-12 15:40:00,59.1,45.6,29.91,SW,230,7.6,7.6,61,0.00,,,0.00,VWS V14.01,2013-01-12 20:40:00,
2013-01-12 15:42:00,59.1,45.6,29.90,SW,224,6.9,7.6,61,0.00,,,0.00,VWS V14.01,2013-01-12 20:42:00,
2013-01-12 15:44:00,59.0,45.9,29.91,SW,215,6.8,6.8,62,0.00,,,0.00,VWS V14.01,2013-01-12 20:44:00,
2013-01-12 15:46:00,58.9,46.2,29.91,SW,229,4.7,5.1,63,0.00,,,0.00,VWS V14.01,2013-01-12 20:46:00,
2013-01-12 15:47:00,58.9,46.3,29.92,SW,223,4.5,4.7,63,0.00,,,0.00,VWS V14.01,2013-01-12 20:47:00,
2013-01-12 15:49:00,58.9,46.5,29.91,SSW,199,6.3,6.3,63,0.00,,,0.00,VWS V14.01,2013-01-12 20:49:00,
2013-01-12 15:51:00,58.7,47.0,29.91,SSW,209,5.6,5.6,65,0.00,,,0.00,VWS V14.01,2013-01-12 20:51:00,
2013-01-12 15:53:00,58.7,46.8,29.91,SSW,210,6.6,7.6,65,0.00,,,0.00,VWS V14.01,2013-01-12 20:53:00,
2013-01-12 15:55:00,58.4,47.0,29.91,SSW,211,4.7,4.7,66,0.00,,,0.00,VWS V14.01,2013-01-12 20:55:00,
2013-01-12 15:58:00,58.5,47.0,29.92,SSW,207,7.3,7.3,65,0.00,,,0.00,VWS V14.01,2013-01-12 20:58:00,
2013-01-12 15:59:00,58.5,46.9,29.92,SSW,202,8.3,8.3,65,0.00,,,0.00,VWS V14.01,2013-01-12 20:59:00,
2013-01-12 16:03:00,58.1,46.8,29.92,SSW,201,7.3,7.3,66,0.00,,,0.00,VWS V14.01,2013-01-12 21:03:00,
2013-01-12 16:04:00,58.3,47.1,29.92,SW,218,8.0,8.0,66,0.00,,,0.00,VWS V14.01,2013-01-12 21:04:00,
2013-01-12 16:05:00,58.2,46.9,29.91,SW,216,6.4,10.4,66,0.00,,,0.00,VWS V14.01,2013-01-12 21:05:00,
2013-01-12 16:09:00,58.2,47.1,29.91,SW,225,6.3,6.3,67,0.00,,,0.00,VWS V14.01,2013-01-12 21:09:00,
2013-01-12 16:10:00,58.3,47.2,29.91,SW,215,7.3,7.3,66,0.00,,,0.00,VWS V14.01,2013-01-12 21:10:00,
2013-01-12 16:12:00,58.2,47.1,29.91,SSW,213,6.8,6.8,66,0.00,,,0.00,VWS V14.01,2013-01-12 21:12:00,
2013-01-12 16:14:00,57.9,46.9,29.91,SSW,198,5.6,6.4,67,0.00,,,0.00,VWS V14.01,2013-01-12 21:14:00,
2013-01-12 16:15:00,57.9,47.2,29.91,SW,232,5.9,5.9,67,0.00,,,0.00,VWS V14.01,2013-01-12 21:15:00,
2013-01-12 16:18:00,57.8,47.2,29.91,SW,218,4.2,4.5,68,0.00,,,0.00,VWS V14.01,2013-01-12 21:18:00,
2013-01-12 16:19:00,57.6,47.1,29.92,SW,226,3.4,4.2,68,0.00,,,0.00,VWS V14.01,2013-01-12 21:19:00,
2013-01-12 16:21:00,57.7,47.4,29.91,SW,228,4.5,4.5,68,0.00,,,0.00,VWS V14.01,2013-01-12 21:21:00,
2013-01-12 16:22:00,57.5,47.2,29.90,SW,220,3.9,4.4,69,0.00,,,0.00,VWS V14.01,2013-01-12 21:22:00,
2013-01-12 16:23:00,57.5,47.4,29.90,SW,220,4.0,4.0,69,0.00,,,0.00,VWS V14.01,2013-01-12 21:23:00,
2013-01-12 16:26:00,57.5,47.6,29.90,SW,221,5.2,5.2,70,0.00,,,0.00,VWS V14.01,2013-01-12 21:26:00,
2013-01-12 16:27:00,57.3,47.5,29.91,SW,220,4.7,5.4,70,0.00,,,0.00,VWS V14.01,2013-01-12 21:27:00,
2013-01-12 16:28:00,57.2,47.5,29.91,SW,224,4.5,4.5,70,0.00,,,0.00,VWS V14.01,2013-01-12 21:28:00,
2013-01-12 16:29:00,57.0,47.4,29.91,SW,224,4.0,4.5,70,0.00,,,0.00,VWS V14.01,2013-01-12 21:29:00,
2013-01-12 16:31:00,57.1,47.7,29.91,SW,231,4.4,4.4,71,0.00,,,0.00,VWS V14.01,2013-01-12 21:31:00,
2013-01-12 16:34:00,57.2,48.1,29.92,SW,232,3.9,4.2,72,0.00,,,0.00,VWS V14.01,2013-01-12 21:34:00,
2013-01-12 16:35:00,57.0,47.9,29.92,SW,231,3.2,3.2,72,0.00,,,0.00,VWS V14.01,2013-01-12 21:35:00,
2013-01-12 16:39:00,56.8,48.1,29.91,SSW,213,3.2,3.7,73,0.00,,,0.00,VWS V14.01,2013-01-12 21:39:00,
2013-01-12 16:40:00,57.1,48.5,29.92,SW,219,4.2,4.2,73,0.00,,,0.00,VWS V14.01,2013-01-12 21:40:00,
2013-01-12 16:41:00,57.0,48.3,29.92,SW,221,3.5,3.5,73,0.00,,,0.00,VWS V14.01,2013-01-12 21:41:00,
2013-01-12 16:44:00,56.8,48.3,29.92,SW,231,3.9,3.9,73,0.00,,,0.00,VWS V14.01,2013-01-12 21:44:00,
2013-01-12 16:45:00,56.8,48.5,29.93,SW,231,3.5,3.5,73,0.00,,,0.00,VWS V14.01,2013-01-12 21:45:00,
2013-01-12 16:46:00,56.7,48.3,29.92,WSW,237,3.5,3.5,74,0.00,,,0.00,VWS V14.01,2013-01-12 21:46:00,
2013-01-12 16:47:00,56.7,48.4,29.93,WSW,237,3.5,3.5,74,0.00,,,0.00,VWS V14.01,2013-01-12 21:47:00,
2013-01-12 16:50:00,56.5,46.5,29.93,WSW,247,3.2,3.5,69,0.00,,,0.00,VWS V14.01,2013-01-12 21:50:00,
2013-01-12 16:51:00,56.4,48.4,29.93,WSW,241,3.2,3.2,75,0.00,,,0.00,VWS V14.01,2013-01-12 21:51:00,
2013-01-12 16:52:00,56.8,49.0,29.92,WSW,251,4.0,4.0,75,0.00,,,0.00,VWS V14.01,2013-01-12 21:52:00,
2013-01-12 16:56:00,56.4,48.6,29.94,WSW,240,3.7,4.4,75,0.00,,,0.00,VWS V14.01,2013-01-12 21:56:00,
2013-01-12 16:57:00,56.3,48.6,29.93,WSW,238,3.9,3.9,75,0.00,,,0.00,VWS V14.01,2013-01-12 21:57:00,
2013-01-12 16:58:00,56.1,48.3,29.93,WSW,243,2.7,3.9,75,0.00,,,0.00,VWS V14.01,2013-01-12 21:58:00,
2013-01-12 17:03:00,56.2,48.8,29.93,WSW,252,2.5,2.5,76,0.00,,,0.00,VWS V14.01,2013-01-12 22:03:00,
2013-01-12 17:04:00,56.2,48.8,29.93,WSW,252,2.7,2.7,76,0.00,,,0.00,VWS V14.01,2013-01-12 22:04:00,
2013-01-12 17:06:00,56.2,49.0,29.93,WSW,255,2.5,2.7,77,0.00,,,0.00,VWS V14.01,2013-01-12 22:06:00,
2013-01-12 17:09:00,55.7,48.8,29.93,WSW,255,0.0,0.0,78,0.00,,,0.00,VWS V14.01,2013-01-12 22:09:00,
2013-01-12 17:10:00,55.8,49.0,29.93,WSW,255,0.0,0.0,78,0.00,,,0.00,VWS V14.01,2013-01-12 22:10:00,
2013-01-12 17:12:00,55.3,48.9,29.92,SW,229,0.0,0.0,79,0.00,,,0.00,VWS V14.01,2013-01-12 22:12:00,
2013-01-12 17:14:00,55.9,49.6,29.92,SW,229,0.0,0.0,79,0.00,,,0.00,VWS V14.01,2013-01-12 22:14:00,
2013-01-12 17:15:00,56.1,49.8,29.92,SSW,209,2.0,2.0,80,0.00,,,0.00,VWS V14.01,2013-01-12 22:15:00,
2013-01-12 17:16:00,56.1,49.8,29.91,SSW,207,2.2,2.2,79,0.00,,,0.00,VWS V14.01,2013-01-12 22:16:00,
2013-01-12 17:18:00,55.8,49.4,29.92,SSW,202,2.3,2.3,79,0.00,,,0.00,VWS V14.01,2013-01-12 22:18:00,
2013-01-12 17:21:00,55.7,49.4,29.92,SSW,202,0.0,2.0,79,0.00,,,0.00,VWS V14.01,2013-01-12 22:21:00,
2013-01-12 17:22:00,56.0,49.9,29.91,SSW,202,2.0,2.0,80,0.00,,,0.00,VWS V14.01,2013-01-12 22:22:00,
2013-01-12 17:23:00,55.9,49.7,29.91,SSW,202,1.8,1.8,80,0.00,,,0.00,VWS V14.01,2013-01-12 22:23:00,
2013-01-12 17:26:00,55.3,49.0,29.91,SSW,198,1.8,2.2,79,0.00,,,0.00,VWS V14.01,2013-01-12 22:26:00,
2013-01-12 17:27:00,55.5,49.3,29.91,SSW,193,2.5,2.5,80,0.00,,,0.00,VWS V14.01,2013-01-12 22:27:00,
2013-01-12 17:28:00,55.4,49.5,29.94,SSW,192,2.7,2.7,80,0.00,,,0.00,VWS V14.01,2013-01-12 22:28:00,
2013-01-12 17:29:00,55.2,49.3,29.92,South,185,2.5,3.2,80,0.00,,,0.00,VWS V14.01,2013-01-12 22:29:00,
2013-01-12 17:32:00,54.8,49.3,29.90,South,169,4.2,4.4,82,0.00,,,0.00,VWS V14.01,2013-01-12 22:32:00,
2013-01-12 17:33:00,54.4,48.8,29.90,SSE,160,4.2,4.5,82,0.00,,,0.00,VWS V14.01,2013-01-12 22:33:00,
2013-01-12 17:34:00,54.6,49.3,29.90,SSE,156,4.4,4.4,82,0.00,,,0.00,VWS V14.01,2013-01-12 22:34:00,
2013-01-12 17:39:00,54.5,49.5,29.90,SSE,147,3.0,3.2,83,0.00,,,0.00,VWS V14.01,2013-01-12 22:39:00,
2013-01-12 17:40:00,54.5,49.6,29.90,SE,143,2.5,2.8,83,0.00,,,0.00,VWS V14.01,2013-01-12 22:40:00,
2013-01-12 17:41:00,54.6,49.7,29.90,SE,140,2.7,2.7,83,0.00,,,0.00,VWS V14.01,2013-01-12 22:41:00,
2013-01-12 17:44:00,54.5,49.7,29.90,SSE,153,3.0,3.0,84,0.00,,,0.00,VWS V14.01,2013-01-12 22:44:00,
2013-01-12 17:45:00,54.4,49.6,29.90,SSE,153,2.7,3.0,84,0.00,,,0.00,VWS V14.01,2013-01-12 22:45:00,
2013-01-12 17:46:00,53.8,47.4,29.90,SSE,153,0.0,2.7,79,0.00,,,0.00,VWS V14.01,2013-01-12 22:46:00,
2013-01-12 17:49:00,53.4,48.5,29.90,SSE,153,0.0,0.0,83,0.00,,,0.00,VWS V14.01,2013-01-12 22:49:00,
2013-01-12 17:50:00,53.3,49.0,29.90,SSW,198,0.0,0.0,85,0.00,,,0.00,VWS V14.01,2013-01-12 22:50:00,
2013-01-12 17:51:00,53.0,48.8,29.91,SSW,198,0.0,0.0,86,0.00,,,0.00,VWS V14.01,2013-01-12 22:51:00,
2013-01-12 17:55:00,52.7,48.9,29.92,SSW,198,0.0,0.0,87,0.00,,,0.00,VWS V14.01,2013-01-12 22:55:00,
2013-01-12 17:56:00,52.9,49.5,29.91,SSW,198,0.0,0.0,88,0.00,,,0.00,VWS V14.01,2013-01-12 22:56:00,
2013-01-12 18:00:00,53.3,50.6,29.91,SSW,198,0.0,0.0,90,0.00,,,0.00,VWS V14.01,2013-01-12 23:00:00,
2013-01-12 18:01:00,53.1,50.5,29.91,SSW,198,0.0,0.0,91,0.00,,,0.00,VWS V14.01,2013-01-12 23:01:00,
2013-01-12 18:02:00,53.1,50.5,29.91,SW,225,0.0,0.0,91,0.00,,,0.00,VWS V14.01,2013-01-12 23:02:00,
2013-01-12 18:06:00,53.5,51.5,29.92,SW,216,3.7,4.0,93,0.00,,,0.00,VWS V14.01,2013-01-12 23:06:00,
2013-01-12 18:07:00,53.7,51.6,29.91,SSW,213,3.7,4.0,93,0.00,,,0.00,VWS V14.01,2013-01-12 23:07:00,
2013-01-12 18:08:00,53.6,51.4,29.92,SSW,213,3.5,4.0,92,0.00,,,0.00,VWS V14.01,2013-01-12 23:08:00,
2013-01-12 18:12:00,53.6,51.3,29.91,SW,221,0.0,4.0,92,0.00,,,0.00,VWS V14.01,2013-01-12 23:12:00,
2013-01-12 18:13:00,53.5,51.1,29.91,SW,221,0.0,4.0,92,0.00,,,0.00,VWS V14.01,2013-01-12 23:13:00,
2013-01-12 18:15:00,53.8,51.7,29.91,SW,221,0.0,4.0,93,0.00,,,0.00,VWS V14.01,2013-01-12 23:15:00,
2013-01-12 18:19:00,53.5,51.5,29.91,SW,221,0.0,4.0,93,0.00,,,0.00,VWS V14.01,2013-01-12 23:19:00,
2013-01-12 18:21:00,54.1,52.1,29.91,West,267,0.0,4.0,93,0.00,,,0.00,VWS V14.01,2013-01-12 23:21:00,
2013-01-12 18:22:00,53.9,52.0,29.92,West,267,0.0,4.0,93,0.00,,,0.00,VWS V14.01,2013-01-12 23:22:00,
2013-01-12 18:23:00,53.0,50.9,29.92,West,267,0.0,4.0,93,0.00,,,0.00,VWS V14.01,2013-01-12 23:23:00,
2013-01-12 18:26:00,53.5,51.8,29.91,SW,227,0.0,4.0,94,0.00,,,0.00,VWS V14.01,2013-01-12 23:26:00,
2013-01-12 18:28:00,53.5,52.0,29.91,SW,226,0.0,4.0,94,0.00,,,0.00,VWS V14.01,2013-01-12 23:28:00,
2013-01-12 18:32:00,52.7,51.0,29.91,SW,226,0.0,4.0,94,0.00,,,0.00,VWS V14.01,2013-01-12 23:32:00,
2013-01-12 18:34:00,52.8,50.9,29.90,SW,226,0.0,4.0,94,0.00,,,0.00,VWS V14.01,2013-01-12 23:34:00,
2013-01-12 18:37:00,52.7,51.6,29.92,SW,226,0.0,4.0,96,0.00,,,0.00,VWS V14.01,2013-01-12 23:37:00,
2013-01-12 18:39:00,52.6,51.7,29.92,SW,226,0.0,4.0,96,0.00,,,0.00,VWS V14.01,2013-01-12 23:39:00,
2013-01-12 18:41:00,52.3,51.4,29.91,SW,226,0.0,4.0,97,0.00,,,0.00,VWS V14.01,2013-01-12 23:41:00,
2013-01-12 18:42:00,52.2,51.3,29.92,SW,226,0.0,4.0,97,0.00,,,0.00,VWS V14.01,2013-01-12 23:42:00,
2013-01-12 18:43:00,51.9,51.0,29.92,SW,226,0.0,4.0,97,0.00,,,0.00,VWS V14.01,2013-01-12 23:43:00,
2013-01-12 18:44:00,52.2,51.3,29.91,SW,226,0.0,4.0,97,0.00,,,0.00,VWS V14.01,2013-01-12 23:44:00,
2013-01-12 18:46:00,52.3,51.8,29.92,SW,226,0.0,4.0,98,0.00,,,0.00,VWS V14.01,2013-01-12 23:46:00,
2013-01-12 18:49:00,52.2,51.7,29.91,SW,226,0.0,4.0,98,0.00,,,0.00,VWS V14.01,2013-01-12 23:49:00,
2013-01-12 18:50:00,51.8,51.3,29.91,SW,226,0.0,4.0,98,0.00,,,0.00,VWS V14.01,2013-01-12 23:50:00,
2013-01-12 18:51:00,52.0,51.7,29.91,SW,226,0.0,4.0,99,0.00,,,0.00,VWS V14.01,2013-01-12 23:51:00,
2013-01-12 18:52:00,52.3,52.0,29.91,SW,226,0.0,4.0,99,0.00,,,0.00,VWS V14.01,2013-01-12 23:52:00,
2013-01-12 18:54:00,52.2,52.0,29.91,SW,226,0.0,4.0,99,0.00,,,0.00,VWS V14.01,2013-01-12 23:54:00,
2013-01-12 18:55:00,52.2,50.6,29.90,SW,226,0.0,4.0,94,0.00,,,0.00,VWS V14.01,2013-01-12 23:55:00,
2013-01-12 18:56:00,52.3,52.1,29.91,SW,226,0.0,4.0,99,0.00,,,0.00,VWS V14.01,2013-01-12 23:56:00,
2013-01-12 18:58:00,52.6,52.6,29.91,SW,226,0.0,4.0,100,0.00,,,0.00,VWS V14.01,2013-01-12 23:58:00,
2013-01-12 18:59:00,52.7,52.7,29.90,SW,226,0.0,4.0,100,0.00,,,0.00,VWS V14.01,2013-01-12 23:59:00,
2013-01-12 19:00:00,52.5,51.4,29.90,NE,34,0.0,4.0,96,0.00,,,0.00,VWS V14.01,2013-01-13 00:00:00,
2013-01-12 19:02:00,51.4,51.4,29.91,NE,34,0.0,0.0,100,0.00,,,0.00,VWS V14.01,2013-01-13 00:02:00,
2013-01-12 19:03:00,51.7,51.7,29.90,NE,34,0.0,0.0,100,0.00,,,0.00,VWS V14.01,2013-01-13 00:03:00,
2013-01-12 19:07:00,52.0,51.9,29.91,NE,34,0.0,0.0,100,0.00,,,0.00,VWS V14.01,2013-01-13 00:07:00,
2013-01-12 19:08:00,52.0,51.9,29.90,NE,34,0.0,0.0,100,0.00,,,0.00,VWS V14.01,2013-01-13 00:08:00,
2013-01-12 19:10:00,52.0,52.0,29.89,NE,34,0.0,0.0,100,0.00,,,0.00,VWS V14.01,2013-01-13 00:10:00,
2013-01-12 19:12:00,52.2,52.2,29.91,NE,34,0.0,0.0,100,0.00,,,0.00,VWS V14.01,2013-01-13 00:12:00,
2013-01-12 19:14:00,52.0,52.0,29.90,NE,34,0.0,0.0,100,0.00,,,0.00,VWS V14.01,2013-01-13 00:14:00,
2013-01-12 19:15:00,51.6,51.6,29.90,NE,34,0.0,0.0,100,0.00,,,0.00,VWS V14.01,2013-01-13 00:15:00,
2013-01-12 19:17:00,51.1,51.1,29.91,NE,34,0.0,0.0,100,0.00,,,0.00,VWS V14.01,2013-01-13 00:17:00,
2013-01-12 19:18:00,52.1,52.1,29.90,NE,34,0.0,0.0,100,0.00,,,0.00,VWS V14.01,2013-01-13 00:18:00,
2013-01-12 19:19:00,51.6,51.6,29.90,NE,34,0.0,0.0,100,0.00,,,0.00,VWS V14.01,2013-01-13 00:19:00,
2013-01-12 19:20:00,51.5,51.5,29.90,NE,34,0.0,0.0,100,0.00,,,0.00,VWS V14.01,2013-01-13 00:20:00,
2013-01-12 19:22:00,52.0,52.0,29.90,NE,34,0.0,0.0,100,0.00,,,0.00,VWS V14.01,2013-01-13 00:22:00,
2013-01-12 19:23:00,51.3,51.3,29.89,NE,34,0.0,0.0,100,0.00,,,0.00,VWS V14.01,2013-01-13 00:23:00,
2013-01-12 19:25:00,52.2,52.2,29.90,NE,34,0.0,0.0,100,0.00,,,0.00,VWS V14.01,2013-01-13 00:25:00,
2013-01-12 19:27:00,52.2,52.2,29.90,NE,34,0.0,0.0,100,0.00,,,0.00,VWS V14.01,2013-01-13 00:27:00,
2013-01-12 19:29:00,51.9,51.9,29.94,NE,34,0.0,1.6,100,0.00,,,0.00,VWS V14.01,2013-01-13 00:29:00,
2013-01-12 19:31:00,52.2,52.2,29.90,NE,34,0.0,0.0,100,0.00,,,0.00,VWS V14.01,2013-01-13 00:31:00,
2013-01-12 19:32:00,52.3,52.4,29.90,SSW,205,1.0,1.0,100,0.00,,,0.00,VWS V14.01,2013-01-13 00:32:00,
2013-01-12 19:34:00,52.5,52.5,29.89,SSW,205,0.0,1.6,100,0.00,,,0.00,VWS V14.01,2013-01-13 00:34:00,
2013-01-12 19:36:00,52.5,52.5,29.90,SSW,205,0.0,0.0,100,0.00,,,0.00,VWS V14.01,2013-01-13 00:36:00,
2013-01-12 19:37:00,51.7,51.7,29.89,SSW,205,0.0,0.0,100,0.00,,,0.00,VWS V14.01,2013-01-13 00:37:00,
2013-01-12 19:38:00,52.5,52.5,29.90,SSW,205,0.0,0.0,100,0.00,,,0.00,VWS V14.01,2013-01-13 00:38:00,
2013-01-12 19:39:00,49.6,49.6,29.89,North,2,0.0,0.0,100,0.00,,,0.00,VWS V14.01,2013-01-13 00:39:00,
2013-01-12 19:43:00,51.1,51.1,29.89,North,2,0.0,0.0,100,0.00,,,0.00,VWS V14.01,2013-01-13 00:43:00,
2013-01-12 19:44:00,50.9,50.9,29.90,North,2,0.0,0.0,100,0.00,,,0.00,VWS V14.01,2013-01-13 00:44:00,
2013-01-12 19:45:00,50.9,50.9,29.89,North,2,0.0,0.0,100,0.00,,,0.00,VWS V14.01,2013-01-13 00:45:00,
2013-01-12 19:49:00,51.0,51.0,29.89,North,2,0.0,0.0,100,0.00,,,0.00,VWS V14.01,2013-01-13 00:49:00,
2013-01-12 19:50:00,51.4,51.4,29.89,North,0,0.0,0.0,100,0.00,,,0.00,VWS V14.01,2013-01-13 00:50:00,
2013-01-12 19:51:00,51.3,51.3,29.89,North,0,0.0,0.0,100,0.00,,,0.00,VWS V14.01,2013-01-13 00:51:00,
2013-01-12 19:55:00,52.0,52.0,29.88,North,0,0.0,0.0,100,0.00,,,0.00,VWS V14.01,2013-01-13 00:55:00,
2013-01-12 19:56:00,52.0,52.0,29.88,North,0,0.0,0.0,100,0.00,,,0.00,VWS V14.01,2013-01-13 00:56:00,
2013-01-12 19:57:00,51.9,51.9,29.89,North,0,0.0,0.0,100,0.00,,,0.00,VWS V14.01,2013-01-13 00:57:00,
2013-01-12 20:02:00,48.9,48.9,29.89,North,0,0.0,0.0,100,0.00,,,0.00,VWS V14.01,2013-01-13 01:02:00,
2013-01-12 20:03:00,48.7,48.7,29.89,North,0,0.0,0.0,100,0.00,,,0.00,VWS V14.01,2013-01-13 01:03:00,
2013-01-12 20:04:00,49.9,49.8,29.88,North,0,0.0,0.0,100,0.00,,,0.00,VWS V14.01,2013-01-13 01:04:00,
2013-01-12 20:07:00,49.2,49.2,29.88,NNE,15,1.3,1.3,100,0.00,,,0.00,VWS V14.01,2013-01-13 01:07:00,
2013-01-12 20:08:00,49.3,49.3,29.89,NNE,15,1.0,1.3,100,0.00,,,0.00,VWS V14.01,2013-01-13 01:08:00,
2013-01-12 20:09:00,48.2,48.2,29.87,NNE,15,0.0,1.5,100,0.00,,,0.00,VWS V14.01,2013-01-13 01:09:00,
2013-01-12 20:10:00,49.9,49.9,29.88,NNE,15,0.0,0.0,100,0.00,,,0.00,VWS V14.01,2013-01-13 01:10:00,
2013-01-12 20:13:00,49.3,49.3,29.89,NNE,15,0.0,0.0,100,0.00,,,0.00,VWS V14.01,2013-01-13 01:13:00,
2013-01-12 20:14:00,49.1,49.1,29.89,NNE,15,0.0,0.0,100,0.00,,,0.00,VWS V14.01,2013-01-13 01:14:00,
2013-01-12 20:15:00,49.2,49.2,29.92,NNE,15,0.0,0.0,100,0.00,,,0.00,VWS V14.01,2013-01-13 01:15:00,
2013-01-12 20:18:00,50.3,50.3,29.87,NNE,19,2.2,3.0,100,0.00,,,0.00,VWS V14.01,2013-01-13 01:18:00,
2013-01-12 20:19:00,48.8,48.8,29.87,NNE,29,4.0,4.0,100,0.00,,,0.00,VWS V14.01,2013-01-13 01:19:00,
2013-01-12 20:20:00,48.8,48.8,29.87,NNE,29,4.0,4.0,100,0.00,,,0.00,VWS V14.01,2013-01-13 01:20:00,
2013-01-12 20:21:00,49.4,49.4,29.87,NNE,24,3.4,3.9,100,0.00,,,0.00,VWS V14.01,2013-01-13 01:21:00,
2013-01-12 20:25:00,51.5,51.5,29.88,NNE,24,0.0,0.0,100,0.00,,,0.00,VWS V14.01,2013-01-13 01:25:00,
2013-01-12 20:27:00,51.6,51.6,29.88,NNE,24,0.0,0.0,100,0.00,,,0.00,VWS V14.01,2013-01-13 01:27:00,
2013-01-12 20:28:00,50.0,50.0,29.87,North,0,0.0,0.0,100,0.00,,,0.00,VWS V14.01,2013-01-13 01:28:00,
2013-01-12 20:31:00,49.8,49.8,29.87,NNE,25,2.0,2.0,100,0.00,,,0.00,VWS V14.01,2013-01-13 01:31:00,
2013-01-12 20:32:00,49.7,49.7,29.86,NNE,30,2.8,2.8,100,0.00,,,0.00,VWS V14.01,2013-01-13 01:32:00,
2013-01-12 20:35:00,50.2,50.2,29.87,NNE,25,0.0,2.0,100,0.00,,,0.00,VWS V14.01,2013-01-13 01:35:00,
2013-01-12 20:37:00,51.0,50.9,29.88,NNE,25,0.0,0.0,100,0.00,,,0.00,VWS V14.01,2013-01-13 01:37:00,
2013-01-12 20:38:00,50.0,50.0,29.88,NNE,25,0.0,0.0,100,0.00,,,0.00,VWS V14.01,2013-01-13 01:38:00,
2013-01-12 20:41:00,49.2,49.2,29.88,SSE,165,2.7,2.7,100,0.00,,,0.00,VWS V14.01,2013-01-13 01:41:00,
2013-01-12 20:42:00,49.1,49.1,29.88,SSE,162,2.8,2.8,100,0.00,,,0.00,VWS V14.01,2013-01-13 01:42:00,
2013-01-12 20:43:00,49.9,49.9,29.87,SSE,157,2.7,2.7,100,0.00,,,0.00,VWS V14.01,2013-01-13 01:43:00,
2013-01-12 20:44:00,49.3,49.3,29.88,SSE,156,3.0,3.0,100,0.00,,,0.00,VWS V14.01,2013-01-13 01:44:00,
2013-01-12 20:47:00,48.9,48.9,29.89,SSE,160,2.2,2.5,100,0.00,,,0.00,VWS V14.01,2013-01-13 01:47:00,
2013-01-12 20:50:00,49.1,49.1,29.89,ESE,114,0.0,1.3,100,0.00,,,0.00,VWS V14.01,2013-01-13 01:50:00,
2013-01-12 20:51:00,48.9,49.0,29.89,ESE,114,0.0,0.0,100,0.00,,,0.00,VWS V14.01,2013-01-13 01:51:00,
2013-01-12 20:53:00,49.3,49.3,29.88,ESE,114,0.0,0.0,100,0.00,,,0.00,VWS V14.01,2013-01-13 01:53:00,
2013-01-12 20:54:00,49.1,49.1,29.88,ESE,114,0.0,0.0,100,0.00,,,0.00,VWS V14.01,2013-01-13 01:54:00,
2013-01-12 20:55:00,48.9,48.9,29.88,ESE,114,0.0,0.0,100,0.00,,,0.00,VWS V14.01,2013-01-13 01:55:00,
2013-01-12 20:57:00,49.3,49.3,29.88,ESE,114,0.0,0.0,100,0.00,,,0.00,VWS V14.01,2013-01-13 01:57:00,
2013-01-12 21:00:00,49.5,49.5,29.89,ESE,114,0.0,0.0,100,0.00,,,0.00,VWS V14.01,2013-01-13 02:00:00,
2013-01-12 21:01:00,49.2,49.2,29.88,ESE,114,0.0,0.0,100,0.00,,,0.00,VWS V14.01,2013-01-13 02:01:00,
2013-01-12 21:03:00,48.8,48.8,29.88,ESE,114,0.0,0.0,100,0.00,,,0.00,VWS V14.01,2013-01-13 02:03:00,
2013-01-12 21:05:00,48.9,48.9,29.89,ESE,114,0.0,0.0,100,0.00,,,0.00,VWS V14.01,2013-01-13 02:05:00,
2013-01-12 21:06:00,49.2,49.2,29.89,ESE,114,0.0,0.0,100,0.00,,,0.00,VWS V14.01,2013-01-13 02:06:00,
2013-01-12 21:09:00,49.6,49.6,29.88,ESE,114,0.0,0.0,100,0.00,,,0.00,VWS V14.01,2013-01-13 02:09:00,
2013-01-12 21:11:00,50.1,50.1,29.88,NE,52,0.0,0.0,100,0.00,,,0.00,VWS V14.01,2013-01-13 02:11:00,
2013-01-12 21:13:00,50.4,50.4,29.88,NE,44,0.0,0.0,100,0.00,,,0.00,VWS V14.01,2013-01-13 02:13:00,
2013-01-12 21:14:00,49.7,49.7,29.88,NE,44,0.0,0.0,100,0.00,,,0.00,VWS V14.01,2013-01-13 02:14:00,
2013-01-12 21:17:00,49.7,49.7,29.87,NE,44,0.0,0.0,100,0.00,,,0.00,VWS V14.01,2013-01-13 02:17:00,
2013-01-12 21:19:00,50.1,50.1,29.88,NNE,30,0.0,0.0,100,0.00,,,0.00,VWS V14.01,2013-01-13 02:19:00,
2013-01-12 21:20:00,49.5,49.6,29.87,NNE,30,0.0,0.0,100,0.00,,,0.00,VWS V14.01,2013-01-13 02:20:00,
2013-01-12 21:21:00,48.7,48.7,29.87,NNE,30,0.0,0.0,100,0.00,,,0.00,VWS V14.01,2013-01-13 02:21:00,
2013-01-12 21:23:00,51.1,51.1,29.88,NNE,30,3.9,3.9,100,0.00,,,0.00,VWS V14.01,2013-01-13 02:23:00,
2013-01-12 21:24:00,50.6,50.6,29.87,NNE,26,4.2,4.2,100,0.00,,,0.00,VWS V14.01,2013-01-13 02:24:00,
2013-01-12 21:25:00,50.9,50.9,29.87,NNE,25,2.2,3.5,100,0.00,,,0.00,VWS V14.01,2013-01-13 02:25:00,
2013-01-12 21:27:00,50.0,50.0,29.87,NNE,25,0.0,1.8,100,0.00,,,0.00,VWS V14.01,2013-01-13 02:27:00,
2013-01-12 21:29:00,50.1,50.1,29.87,NNE,25,0.0,1.5,100,0.00,,,0.00,VWS V14.01,2013-01-13 02:29:00,
2013-01-12 21:30:00,49.7,49.1,29.87,NNE,26,0.0,0.0,98,0.00,,,0.00,VWS V14.01,2013-01-13 02:30:00,
2013-01-12 21:32:00,49.9,49.9,29.88,NNE,26,0.0,0.0,100,0.00,,,0.00,VWS V14.01,2013-01-13 02:32:00,
2013-01-12 21:35:00,49.2,49.2,29.87,NNE,26,0.0,0.0,100,0.00,,,0.00,VWS V14.01,2013-01-13 02:35:00,
2013-01-12 21:36:00,50.0,50.0,29.87,NNE,26,0.0,0.0,100,0.00,,,0.00,VWS V14.01,2013-01-13 02:36:00,
2013-01-12 21:37:00,49.7,49.7,29.86,NNE,26,0.0,0.0,100,0.00,,,0.00,VWS V14.01,2013-01-13 02:37:00,
2013-01-12 21:38:00,49.7,49.7,29.86,NNE,26,0.0,0.0,100,0.00,,,0.00,VWS V14.01,2013-01-13 02:38:00,
2013-01-12 21:41:00,48.8,47.6,29.87,SE,145,1.3,1.3,95,0.00,,,0.00,VWS V14.01,2013-01-13 02:41:00,
2013-01-12 21:42:00,49.2,49.2,29.87,ESE,119,2.0,2.0,100,0.00,,,0.00,VWS V14.01,2013-01-13 02:42:00,
2013-01-12 21:44:00,50.0,50.0,29.87,ESE,115,2.7,2.7,100,0.00,,,0.00,VWS V14.01,2013-01-13 02:44:00,
2013-01-12 21:46:00,50.8,50.8,29.87,ESE,115,2.0,2.2,100,0.00,,,0.00,VWS V14.01,2013-01-13 02:46:00,
2013-01-12 21:49:00,49.3,49.3,29.86,SE,143,0.0,0.0,100,0.00,,,0.00,VWS V14.01,2013-01-13 02:49:00,
2013-01-12 21:50:00,49.3,49.3,29.86,SE,143,0.0,0.0,100,0.00,,,0.00,VWS V14.01,2013-01-13 02:50:00,
2013-01-12 21:51:00,49.3,49.3,29.85,SE,131,1.0,1.0,100,0.00,,,0.00,VWS V14.01,2013-01-13 02:51:00,
2013-01-12 21:54:00,49.6,49.6,29.87,ESE,117,2.3,2.5,100,0.00,,,0.00,VWS V14.01,2013-01-13 02:54:00,
2013-01-12 21:56:00,49.2,49.2,29.86,ESE,104,2.5,3.0,100,0.00,,,0.00,VWS V14.01,2013-01-13 02:56:00,
2013-01-12 21:57:00,49.6,49.6,29.86,ESE,104,2.3,2.7,100,0.00,,,0.00,VWS V14.01,2013-01-13 02:57:00,
2013-01-12 21:59:00,49.2,49.2,29.86,ENE,76,2.5,2.7,100,0.00,,,0.00,VWS V14.01,2013-01-13 02:59:00,
2013-01-12 22:01:00,49.2,49.2,29.86,NE,47,0.0,1.8,100,0.00,,,0.00,VWS V14.01,2013-01-13 03:01:00,
2013-01-12 22:02:00,50.0,50.0,29.85,NE,40,1.1,1.1,100,0.00,,,0.00,VWS V14.01,2013-01-13 03:02:00,
2013-01-12 22:05:00,50.4,50.4,29.85,NNE,33,0.0,0.0,100,0.00,,,0.00,VWS V14.01,2013-01-13 03:05:00,
2013-01-12 22:07:00,50.1,50.1,29.86,NNE,33,0.0,0.0,100,0.00,,,0.00,VWS V14.01,2013-01-13 03:07:00,
2013-01-12 22:09:00,50.3,50.3,29.85,NNE,33,0.0,0.0,100,0.00,,,0.00,VWS V14.01,2013-01-13 03:09:00,
2013-01-12 22:10:00,50.5,50.5,29.85,NNE,33,0.0,0.0,100,0.00,,,0.00,VWS V14.01,2013-01-13 03:10:00,
2013-01-12 22:12:00,50.3,50.4,29.84,NNE,28,1.3,1.3,100,0.00,,,0.00,VWS V14.01,2013-01-13 03:12:00,
2013-01-12 22:13:00,49.7,49.7,29.84,NNE,28,0.0,0.0,100,0.00,,,0.00,VWS V14.01,2013-01-13 03:13:00,
2013-01-12 22:15:00,50.6,50.6,29.83,NNE,28,0.0,0.0,100,0.00,,,0.00,VWS V14.01,2013-01-13 03:15:00,
2013-01-12 22:17:00,50.9,50.9,29.84,NNE,28,1.3,1.6,100,0.00,,,0.00,VWS V14.01,2013-01-13 03:17:00,
2013-01-12 22:18:00,51.0,51.0,29.85,NE,40,2.2,2.2,100,0.00,,,0.00,VWS V14.01,2013-01-13 03:18:00,
2013-01-12 22:19:00,50.9,50.9,29.85,NE,41,2.3,2.3,100,0.00,,,0.00,VWS V14.01,2013-01-13 03:19:00,
2013-01-12 22:20:00,50.3,50.3,29.84,NNE,17,3.4,3.4,100,0.00,,,0.00,VWS V14.01,2013-01-13 03:20:00,
2013-01-12 22:23:00,50.6,50.6,29.84,North,9,2.5,2.5,100,0.00,,,0.00,VWS V14.01,2013-01-13 03:23:00,
2013-01-12 22:24:00,50.4,50.4,29.83,North,352,1.3,2.5,100,0.00,,,0.00,VWS V14.01,2013-01-13 03:24:00,
2013-01-12 22:25:00,50.2,50.2,29.84,NE,39,1.3,1.3,100,0.00,,,0.00,VWS V14.01,2013-01-13 03:25:00,
2013-01-12 22:30:00,51.1,51.1,29.83,NE,43,3.2,3.2,100,0.00,,,0.00,VWS V14.01,2013-01-13 03:30:00,
2013-01-12 22:31:00,51.4,51.4,29.84,NE,41,3.7,3.7,100,0.00,,,0.00,VWS V14.01,2013-01-13 03:31:00,
2013-01-12 22:36:00,51.2,51.2,29.83,NE,35,2.8,2.8,100,0.04,,,0.04,VWS V14.01,2013-01-13 03:36:00,
2013-01-12 22:37:00,51.3,51.3,29.83,NNE,32,2.7,2.7,100,0.04,,,0.04,VWS V14.01,2013-01-13 03:37:00,
2013-01-12 22:41:00,51.2,51.2,29.82,NE,37,2.7,3.5,100,0.04,,,0.04,VWS V14.01,2013-01-13 03:41:00,
2013-01-12 22:42:00,51.3,51.3,29.82,NE,37,2.0,2.7,100,0.04,,,0.04,VWS V14.01,2013-01-13 03:42:00,
2013-01-12 22:43:00,52.2,52.2,29.82,NE,46,3.7,3.7,100,0.04,,,0.04,VWS V14.01,2013-01-13 03:43:00,
2013-01-12 22:47:00,51.5,51.5,29.82,NE,56,4.2,5.4,100,0.04,,,0.04,VWS V14.01,2013-01-13 03:47:00,
2013-01-12 22:48:00,51.7,51.7,29.81,NE,49,4.5,4.7,100,0.04,,,0.00,VWS V14.01,2013-01-13 03:48:00,
2013-01-12 22:49:00,51.7,51.7,29.81,NE,50,4.0,4.5,100,0.04,,,0.04,VWS V14.01,2013-01-13 03:49:00,
2013-01-12 22:53:00,51.5,51.5,29.80,ENE,62,5.6,5.6,100,0.04,,,0.04,VWS V14.01,2013-01-13 03:53:00,
2013-01-12 22:54:00,51.4,51.4,29.81,ENE,57,5.6,5.6,100,0.04,,,0.04,VWS V14.01,2013-01-13 03:54:00,
2013-01-12 22:55:00,51.5,51.5,29.81,ENE,59,4.7,5.6,100,0.04,,,0.04,VWS V14.01,2013-01-13 03:55:00,
2013-01-12 22:59:00,51.8,51.8,29.80,ENE,74,5.6,5.7,100,0.08,,,0.08,VWS V14.01,2013-01-13 03:59:00,
2013-01-12 23:00:00,51.8,51.8,29.80,ENE,66,6.4,6.4,100,0.08,,,0.08,VWS V14.01,2013-01-13 04:00:00,
2013-01-12 23:01:00,52.0,52.0,29.80,NE,55,5.9,6.4,100,0.08,,,0.08,VWS V14.01,2013-01-13 04:01:00,
2013-01-12 23:05:00,52.0,52.0,29.79,NE,56,4.5,4.7,100,0.08,,,0.08,VWS V14.01,2013-01-13 04:05:00,
2013-01-12 23:06:00,52.1,52.1,29.82,NE,53,5.7,5.7,100,0.08,,,0.08,VWS V14.01,2013-01-13 04:06:00,
2013-01-12 23:11:00,52.2,52.2,29.78,ENE,59,6.8,6.8,100,0.08,,,0.08,VWS V14.01,2013-01-13 04:11:00,
2013-01-12 23:12:00,52.2,52.2,29.78,ENE,59,6.8,6.8,100,0.08,,,0.08,VWS V14.01,2013-01-13 04:12:00,
2013-01-12 23:13:00,52.3,52.3,29.79,ENE,72,3.7,4.7,100,0.08,,,0.08,VWS V14.01,2013-01-13 04:13:00,
2013-01-12 23:14:00,51.8,51.8,29.78,NE,48,3.4,6.1,100,0.08,,,0.08,VWS V14.01,2013-01-13 04:14:00,
2013-01-12 23:18:00,52.2,52.2,29.78,NE,53,5.6,5.6,100,0.08,,,0.08,VWS V14.01,2013-01-13 04:18:00,
2013-01-12 23:20:00,52.1,52.1,29.77,ENE,57,4.2,4.2,100,0.12,,,0.12,VWS V14.01,2013-01-13 04:20:00,
2013-01-12 23:23:00,52.0,52.0,29.76,NE,45,4.5,4.5,100,0.12,,,0.12,VWS V14.01,2013-01-13 04:23:00,
2013-01-12 23:25:00,52.0,52.0,29.74,NE,39,6.8,6.8,100,0.12,,,0.12,VWS V14.01,2013-01-13 04:25:00,
2013-01-12 23:26:00,52.3,52.3,29.74,NE,47,8.1,8.1,100,0.12,,,0.12,VWS V14.01,2013-01-13 04:26:00,
2013-01-12 23:28:00,51.9,51.9,29.73,NE,49,7.3,8.3,100,0.12,,,0.12,VWS V14.01,2013-01-13 04:28:00,
2013-01-12 23:30:00,52.0,52.0,29.74,NE,51,6.4,6.6,100,0.12,,,0.12,VWS V14.01,2013-01-13 04:30:00,
2013-01-12 23:31:00,52.1,52.1,29.75,NNE,28,4.7,5.2,100,0.12,,,0.12,VWS V14.01,2013-01-13 04:31:00,
2013-01-12 23:33:00,52.0,52.0,29.75,NE,43,5.7,5.7,100,0.12,,,0.12,VWS V14.01,2013-01-13 04:33:00,
2013-01-12 23:34:00,52.1,52.1,29.74,NE,46,4.7,7.6,100,0.12,,,0.12,VWS V14.01,2013-01-13 04:34:00,
2013-01-12 23:35:00,52.2,52.2,29.76,NE,55,6.3,9.7,100,0.08,,,0.12,VWS V14.01,2013-01-13 04:35:00,
2013-01-12 23:39:00,52.3,52.3,29.74,NE,54,4.4,5.9,100,0.08,,,0.12,VWS V14.01,2013-01-13 04:39:00,
2013-01-12 23:41:00,52.5,52.5,29.76,NE,48,6.6,6.6,100,0.08,,,0.12,VWS V14.01,2013-01-13 04:41:00,
2013-01-12 23:44:00,52.7,52.7,29.76,North,9,5.9,5.9,100,0.08,,,0.12,VWS V14.01,2013-01-13 04:44:00,
2013-01-12 23:45:00,52.5,52.5,29.75,NNE,29,2.0,2.0,100,0.08,,,0.12,VWS V14.01,2013-01-13 04:45:00,
2013-01-12 23:47:00,52.5,52.5,29.77,North,9,2.7,3.2,100,0.08,,,0.12,VWS V14.01,2013-01-13 04:47:00,
2013-01-12 23:50:00,52.8,52.8,29.78,NE,47,0.0,2.7,100,0.08,,,0.12,VWS V14.01,2013-01-13 04:50:00,
2013-01-12 23:51:00,52.5,52.5,29.76,NE,43,2.5,3.4,100,0.08,,,0.12,VWS V14.01,2013-01-13 04:51:00,
2013-01-12 23:53:00,52.6,52.6,29.78,NNE,24,1.5,1.5,100,0.08,,,0.12,VWS V14.01,2013-01-13 04:53:00,
2013-01-12 23:56:00,52.6,52.6,29.77,NNE,22,3.0,3.0,100,0.12,,,0.16,VWS V14.01,2013-01-13 04:56:00,
2013-01-12 23:58:00,52.5,52.5,29.78,NNE,13,0.0,0.0,100,0.12,,,0.16,VWS V14.01,2013-01-13 04:58:00,